Observation data for Sierra Blanca on 05/24/2020      Previous  Date  Next       Current Mesonet Observations  Soil Data  Daily Summary Page  Observations in Plain Language
KSB1 240500Z 30012KT 26/M07 A2992 RMK A01 T02601073  RH  011%=      5-min Rain = 0
KSB1 240501Z 31011G16KT 26/M07 A2992 RMK A01 T02601073  RH  011%=      5-min Rain = 0
KSB1 240502Z 31015KT 26/M07 A2992 RMK A01 T02591073  RH  011%=      5-min Rain = 0
KSB1 240503Z 30013KT 26/M07 A2992 RMK A01 T02601073  RH  011%=      5-min Rain = 0
KSB1 240504Z 30015KT 26/M07 A2992 RMK A01 T02601074  RH  010%=      5-min Rain = 0
KSB1 240505Z 31014KT 26/M07 A2992 RMK A01 T02601074  RH  010%=      5-min Rain = 0
KSB1 240506Z 31013KT 26/M08 A2992 RMK A01 T02601075  RH  010%=      5-min Rain = 0
KSB1 240507Z 31015KT 26/M08 A2992 RMK A01 T02601075  RH  010%=      5-min Rain = 0
KSB1 240508Z 31015KT 26/M07 A2992 RMK A01 T02601074  RH  010%=      5-min Rain = 0
KSB1 240509Z 31014KT 26/M08 A2992 RMK A01 T02601075  RH  010%=      5-min Rain = 0
KSB1 240510Z 31014KT 26/M08 A2992 RMK A01 T02591075  RH  010%=      5-min Rain = 0
KSB1 240511Z 31015KT 26/M08 A2992 RMK A01 T02591075  RH  010%=      5-min Rain = 0
KSB1 240512Z 31017KT 26/M08 A2992 RMK A01 T02591075  RH  010%=      5-min Rain = 0
KSB1 240513Z 31015KT 26/M07 A2992 RMK A01 T02601074  RH  010%=      5-min Rain = 0
KSB1 240514Z 31016KT 26/M08 A2992 RMK A01 T02591075  RH  010%=      5-min Rain = 0
KSB1 240515Z 31016KT 26/M08 A2992 RMK A01 T02591075  RH  010%=      5-min Rain = 0
KSB1 240516Z 30014G20KT 26/M08 A2992 RMK A01 T02581075  RH  010%=      5-min Rain = 0
KSB1 240517Z 31015G20KT 26/M08 A2992 RMK A01 T02581075  RH  010%=      5-min Rain = 0
KSB1 240518Z 31016KT 26/M08 A2992 RMK A01 T02581077  RH  010%=      5-min Rain = 0
KSB1 240519Z 31017KT 26/M08 A2992 RMK A01 T02581077  RH  010%=      5-min Rain = 0
KSB1 240520Z 30015KT 26/M08 A2992 RMK A01 T02581077  RH  010%=      5-min Rain = 0
KSB1 240521Z 31015G20KT 26/M08 A2992 RMK A01 T02581077  RH  010%=      5-min Rain = 0
KSB1 240522Z 31017KT 26/M08 A2992 RMK A01 T02581077  RH  010%=      5-min Rain = 0
KSB1 240523Z 31016KT 26/M08 A2992 RMK A01 T02581078  RH  010%=      5-min Rain = 0
KSB1 240524Z 31017G22KT 26/M08 A2992 RMK A01 T02581078  RH  010%=      5-min Rain = 0
KSB1 240525Z 31017KT 26/M08 A2992 RMK A01 T02581077  RH  010%=      5-min Rain = 0
KSB1 240526Z 31014KT 26/M08 A2992 RMK A01 T02571078  RH  010%=      5-min Rain = 0
KSB1 240527Z 31015KT 26/M08 A2992 RMK A01 T02561078  RH  010%=      5-min Rain = 0
KSB1 240528Z 31017KT 26/M08 A2992 RMK A01 T02551078  RH  010%=      5-min Rain = 0
KSB1 240529Z 31017KT 26/M08 A2992 RMK A01 T02551078  RH  010%=      5-min Rain = 0
KSB1 240530Z 31014KT 26/M08 A2993 RMK A01 T02551078  RH  010%=      5-min Rain = 0
KSB1 240531Z 31017KT 26/M08 A2993 RMK A01 T02551078  RH  010%=      5-min Rain = 0
KSB1 240532Z 31016KT 25/M08 A2992 RMK A01 T02541078  RH  011%=      5-min Rain = 0
KSB1 240533Z 31017KT 25/M08 A2992 RMK A01 T02541078  RH  011%=      5-min Rain = 0
KSB1 240534Z 31017KT 26/M08 A2992 RMK A01 T02551078  RH  010%=      5-min Rain = 0
KSB1 240535Z 31016KT 25/M08 A2992 RMK A01 T02541078  RH  011%=      5-min Rain = 0
KSB1 240536Z 31016KT 25/M08 A2992 RMK A01 T02531078  RH  011%=      5-min Rain = 0
KSB1 240537Z 31017KT 25/M08 A2992 RMK A01 T02531077  RH  011%=      5-min Rain = 0
KSB1 240538Z 31015KT 25/M08 A2993 RMK A01 T02531077  RH  011%=      5-min Rain = 0
KSB1 240539Z 31015KT 25/M08 A2993 RMK A01 T02531077  RH  011%=      5-min Rain = 0
KSB1 240540Z 31016G21KT 25/M08 A2993 RMK A01 T02531076  RH  011%=      5-min Rain = 0
KSB1 240541Z 31015G20KT 25/M08 A2993 RMK A01 T02521077  RH  011%=      5-min Rain = 0
KSB1 240542Z 31014KT 25/M08 A2993 RMK A01 T02531075  RH  011%=      5-min Rain = 0
KSB1 240543Z 31015KT 25/M08 A2993 RMK A01 T02531075  RH  011%=      5-min Rain = 0
KSB1 240544Z 31015KT 25/M08 A2993 RMK A01 T02521076  RH  011%=      5-min Rain = 0
KSB1 240545Z 31016KT 25/M08 A2993 RMK A01 T02531075  RH  011%=      5-min Rain = 0
KSB1 240546Z 31014KT 25/M08 A2993 RMK A01 T02521075  RH  011%=      5-min Rain = 0
KSB1 240547Z 31017KT 25/M07 A2993 RMK A01 T02521074  RH  011%=      5-min Rain = 0
KSB1 240548Z 31015KT 25/M07 A2993 RMK A01 T02521073  RH  011%=      5-min Rain = 0
KSB1 240549Z 32014G19KT 25/M07 A2993 RMK A01 T02521074  RH  011%=      5-min Rain = 0
KSB1 240550Z 31016KT 25/M07 A2993 RMK A01 T02511072  RH  011%=      5-min Rain = 0
KSB1 240551Z 31015KT 25/M07 A2993 RMK A01 T02511072  RH  011%=      5-min Rain = 0
KSB1 240552Z 31013KT 25/M07 A2993 RMK A01 T02511072  RH  011%=      5-min Rain = 0
KSB1 240553Z 30014KT 25/M07 A2993 RMK A01 T02511071  RH  011%=      5-min Rain = 0
KSB1 240554Z 31014KT 25/M07 A2993 RMK A01 T02511071  RH  011%=      5-min Rain = 0
KSB1 240555Z 31016KT 25/M07 A2993 RMK A01 T02511071  RH  011%=      5-min Rain = 0
KSB1 240556Z 31016KT 25/M07 A2993 RMK A01 T02511071  RH  011%=      5-min Rain = 0
KSB1 240557Z 31016KT 25/M07 A2993 RMK A01 T02511071  RH  011%=      5-min Rain = 0
KSB1 240558Z 31016KT 25/M07 A2993 RMK A01 T02511070  RH  011%=      5-min Rain = 0
KSB1 240559Z 30015KT 25/M07 A2993 RMK A01 T02511070  RH  011%=      5-min Rain = 0
KSB1 240600Z 31014KT 25/M07 A2993 RMK A01 T02501070  RH  011%=      5-min Rain = 0
KSB1 240601Z 31015KT 25/M07 A2993 RMK A01 T02501069  RH  012%=      5-min Rain = 0
KSB1 240602Z 31015KT 25/M07 A2993 RMK A01 T02501068  RH  012%=      5-min Rain = 0
KSB1 240603Z 32015KT 25/M07 A2993 RMK A01 T02501068  RH  012%=      5-min Rain = 0
KSB1 240604Z 31016KT 25/M07 A2993 RMK A01 T02501068  RH  012%=      5-min Rain = 0
KSB1 240605Z 31014G19KT 25/M07 A2993 RMK A01 T02501068  RH  012%=      5-min Rain = 0
KSB1 240606Z 31014G20KT 25/M07 A2993 RMK A01 T02501067  RH  012%=      5-min Rain = 0
KSB1 240607Z 31013KT 25/M07 A2993 RMK A01 T02501067  RH  012%=      5-min Rain = 0
KSB1 240608Z 31013KT 25/M07 A2993 RMK A01 T02501067  RH  012%=      5-min Rain = 0
KSB1 240609Z 30013KT 25/M07 A2993 RMK A01 T02491066  RH  012%=      5-min Rain = 0
KSB1 240610Z 30013KT 25/M07 A2993 RMK A01 T02491065  RH  012%=      5-min Rain = 0
KSB1 240611Z 30014KT 25/M06 A2993 RMK A01 T02491064  RH  012%=      5-min Rain = 0
KSB1 240612Z 30014KT 25/M06 A2993 RMK A01 T02491064  RH  012%=      5-min Rain = 0
KSB1 240613Z 31014KT 25/M06 A2993 RMK A01 T02491064  RH  012%=      5-min Rain = 0
KSB1 240614Z 31017KT 25/M06 A2993 RMK A01 T02491064  RH  012%=      5-min Rain = 0
KSB1 240615Z 31015G20KT 25/M06 A2993 RMK A01 T02491063  RH  012%=      5-min Rain = 0
KSB1 240616Z 30018KT 25/M06 A2993 RMK A01 T02491063  RH  012%=      5-min Rain = 0
KSB1 240617Z 31015KT 25/M06 A2993 RMK A01 T02501062  RH  012%=      5-min Rain = 0
KSB1 240618Z 31013KT 25/M06 A2993 RMK A01 T02501062  RH  012%=      5-min Rain = 0
KSB1 240619Z 30012KT 25/M06 A2993 RMK A01 T02491062  RH  012%=      5-min Rain = 0
KSB1 240620Z 30014KT 25/M06 A2993 RMK A01 T02491062  RH  012%=      5-min Rain = 0
KSB1 240621Z 30013KT 25/M06 A2993 RMK A01 T02481061  RH  012%=      5-min Rain = 0
KSB1 240622Z 31014KT 25/M06 A2993 RMK A01 T02481060  RH  012%=      5-min Rain = 0
KSB1 240623Z 30015KT 25/M06 A2993 RMK A01 T02481060  RH  012%=      5-min Rain = 0
KSB1 240624Z 30015KT 25/M06 A2993 RMK A01 T02481060  RH  012%=      5-min Rain = 0
KSB1 240625Z 30013G21KT 25/M06 A2993 RMK A01 T02481060  RH  013%=      5-min Rain = 0
KSB1 240626Z 31014KT 25/M06 A2993 RMK A01 T02481058  RH  013%=      5-min Rain = 0
KSB1 240627Z 30014G20KT 25/M06 A2993 RMK A01 T02481058  RH  013%=      5-min Rain = 0
KSB1 240628Z 31014KT 25/M06 A2993 RMK A01 T02471060  RH  013%=      5-min Rain = 0
KSB1 240629Z 31015KT 25/M06 A2993 RMK A01 T02471060  RH  013%=      5-min Rain = 0
KSB1 240630Z 30014KT 25/M06 A2993 RMK A01 T02471060  RH  013%=      5-min Rain = 0
KSB1 240631Z 31013KT 25/M06 A2993 RMK A01 T02461060  RH  013%=      5-min Rain = 0
KSB1 240632Z 31015KT 25/M06 A2993 RMK A01 T02461057  RH  013%=      5-min Rain = 0
KSB1 240633Z 30013KT 25/M06 A2993 RMK A01 T02461057  RH  013%=      5-min Rain = 0
KSB1 240634Z 30015KT 25/M06 A2993 RMK A01 T02451057  RH  013%=      5-min Rain = 0
KSB1 240635Z 31013KT 25/M06 A2993 RMK A01 T02451056  RH  013%=      5-min Rain = 0
KSB1 240636Z 30013KT 25/M06 A2993 RMK A01 T02451055  RH  013%=      5-min Rain = 0
KSB1 240637Z 31015KT 25/M06 A2993 RMK A01 T02451055  RH  013%=      5-min Rain = 0
KSB1 240638Z 31015KT 25/M06 A2993 RMK A01 T02461056  RH  013%=      5-min Rain = 0
KSB1 240639Z 30014G19KT 25/M06 A2993 RMK A01 T02461055  RH  013%=      5-min Rain = 0
KSB1 240640Z 30014KT 25/M06 A2993 RMK A01 T02461056  RH  013%=      5-min Rain = 0
KSB1 240641Z 30014KT 25/M06 A2993 RMK A01 T02461055  RH  013%=      5-min Rain = 0
KSB1 240642Z 31014KT 25/M06 A2993 RMK A01 T02461055  RH  013%=      5-min Rain = 0
KSB1 240643Z 30012KT 25/M06 A2993 RMK A01 T02451055  RH  013%=      5-min Rain = 0
KSB1 240644Z 31012KT 25/M06 A2993 RMK A01 T02451055  RH  013%=      5-min Rain = 0
KSB1 240645Z 31013KT 24/M06 A2993 RMK A01 T02441055  RH  013%=      5-min Rain = 0
KSB1 240646Z 31014KT 24/M06 A2993 RMK A01 T02431055  RH  013%=      5-min Rain = 0
KSB1 240647Z 30015KT 24/M05 A2993 RMK A01 T02441054  RH  013%=      5-min Rain = 0
KSB1 240648Z 30012KT 24/M06 A2993 RMK A01 T02441055  RH  013%=      5-min Rain = 0
KSB1 240649Z 31011KT 24/M06 A2993 RMK A01 T02431055  RH  013%=      5-min Rain = 0
KSB1 240650Z 30013KT 24/M05 A2993 RMK A01 T02431054  RH  013%=      5-min Rain = 0
KSB1 240651Z 31013KT 24/M05 A2993 RMK A01 T02431054  RH  014%=      5-min Rain = 0
KSB1 240652Z 30015KT 24/M05 A2993 RMK A01 T02421054  RH  014%=      5-min Rain = 0
KSB1 240653Z 31011KT 24/M05 A2993 RMK A01 T02431054  RH  013%=      5-min Rain = 0
KSB1 240654Z 31012KT 24/M06 A2993 RMK A01 T02431055  RH  013%=      5-min Rain = 0
KSB1 240655Z 30012G18KT 24/M06 A2993 RMK A01 T02421056  RH  013%=      5-min Rain = 0
KSB1 240656Z 30011KT 24/M06 A2993 RMK A01 T02421055  RH  014%=      5-min Rain = 0
KSB1 240657Z 31010KT 24/M05 A2993 RMK A01 T02411054  RH  014%=      5-min Rain = 0
KSB1 240658Z 30013G18KT 24/M06 A2993 RMK A01 T02411055  RH  014%=      5-min Rain = 0
KSB1 240659Z 30013KT 24/M05 A2993 RMK A01 T02411054  RH  014%=      5-min Rain = 0
KSB1 240700Z 30014KT 24/M05 A2993 RMK A01 T02421054  RH  014%=      5-min Rain = 0
KSB1 240701Z 31014KT 24/M06 A2993 RMK A01 T02421055  RH  013%=      5-min Rain = 0
KSB1 240702Z 30012KT 24/M06 A2993 RMK A01 T02421055  RH  013%=      5-min Rain = 0
KSB1 240703Z 30012KT 24/M06 A2993 RMK A01 T02421055  RH  013%=      5-min Rain = 0
KSB1 240704Z 31014KT 24/M06 A2993 RMK A01 T02411055  RH  014%=      5-min Rain = 0
KSB1 240705Z 31013KT 24/M06 A2993 RMK A01 T02421055  RH  013%=      5-min Rain = 0
KSB1 240706Z 30013KT 24/M06 A2993 RMK A01 T02421055  RH  013%=      5-min Rain = 0
KSB1 240707Z 30011KT 24/M06 A2993 RMK A01 T02421055  RH  013%=      5-min Rain = 0
KSB1 240708Z 31010KT 24/M05 A2993 RMK A01 T02421054  RH  014%=      5-min Rain = 0
KSB1 240709Z 30011KT 24/M06 A2993 RMK A01 T02411055  RH  014%=      5-min Rain = 0
KSB1 240710Z 31012KT 24/M06 A2993 RMK A01 T02401055  RH  014%=      5-min Rain = 0
KSB1 240711Z 30012KT 24/M05 A2993 RMK A01 T02401054  RH  014%=      5-min Rain = 0
KSB1 240712Z 31012KT 24/M06 A2993 RMK A01 T02401055  RH  014%=      5-min Rain = 0
KSB1 240713Z 31012KT 24/M05 A2993 RMK A01 T02401054  RH  014%=      5-min Rain = 0
KSB1 240714Z 31013KT 24/M05 A2993 RMK A01 T02401053  RH  014%=      5-min Rain = 0
KSB1 240715Z 32014KT 24/M05 A2993 RMK A01 T02401054  RH  014%=      5-min Rain = 0
KSB1 240716Z 31012KT 24/M05 A2993 RMK A01 T02411054  RH  014%=      5-min Rain = 0
KSB1 240717Z 31011KT 24/M05 A2993 RMK A01 T02411053  RH  014%=      5-min Rain = 0
KSB1 240718Z 31012KT 24/M05 A2993 RMK A01 T02401053  RH  014%=      5-min Rain = 0
KSB1 240719Z 30014KT 24/M05 A2993 RMK A01 T02401051  RH  014%=      5-min Rain = 0
KSB1 240720Z 31010G16KT 24/M05 A2993 RMK A01 T02391052  RH  014%=      5-min Rain = 0
KSB1 240721Z 30013KT 24/M05 A2993 RMK A01 T02391052  RH  014%=      5-min Rain = 0
KSB1 240722Z 31012KT 24/M05 A2992 RMK A01 T02391052  RH  014%=      5-min Rain = 0
KSB1 240723Z 31012KT 24/M05 A2992 RMK A01 T02391052  RH  014%=      5-min Rain = 0
KSB1 240724Z 30013KT 24/M05 A2992 RMK A01 T02391052  RH  014%=      5-min Rain = 0
KSB1 240725Z 31011KT 24/M05 A2992 RMK A01 T02391052  RH  014%=      5-min Rain = 0
KSB1 240726Z 31012KT 24/M05 A2992 RMK A01 T02391053  RH  014%=      5-min Rain = 0
KSB1 240727Z 30012KT 24/M05 A2992 RMK A01 T02381053  RH  014%=      5-min Rain = 0
KSB1 240728Z 30010KT 24/M05 A2992 RMK A01 T02371053  RH  014%=      5-min Rain = 0
KSB1 240729Z 30011KT 24/M05 A2992 RMK A01 T02361054  RH  014%=      5-min Rain = 0
KSB1 240730Z 30011KT 24/M05 A2992 RMK A01 T02371053  RH  014%=      5-min Rain = 0
KSB1 240731Z 30011KT 24/M05 A2992 RMK A01 T02371053  RH  014%=      5-min Rain = 0
KSB1 240732Z 30013KT 24/M05 A2992 RMK A01 T02371053  RH  014%=      5-min Rain = 0
KSB1 240733Z 31012KT 24/M05 A2992 RMK A01 T02371053  RH  014%=      5-min Rain = 0
KSB1 240734Z 31011KT 24/M05 A2992 RMK A01 T02371054  RH  014%=      5-min Rain = 0
KSB1 240735Z 31012KT 24/M05 A2992 RMK A01 T02361054  RH  014%=      5-min Rain = 0
KSB1 240736Z 30011KT 24/M05 A2992 RMK A01 T02361054  RH  014%=      5-min Rain = 0
KSB1 240737Z 31013KT 24/M05 A2992 RMK A01 T02361053  RH  014%=      5-min Rain = 0
KSB1 240738Z 30011KT 24/M05 A2992 RMK A01 T02361054  RH  014%=      5-min Rain = 0
KSB1 240739Z 30010KT 24/M05 A2992 RMK A01 T02351054  RH  014%=      5-min Rain = 0
KSB1 240740Z 31010KT 24/M05 A2992 RMK A01 T02351054  RH  014%=      5-min Rain = 0
KSB1 240741Z 30010KT 23/M05 A2992 RMK A01 T02341054  RH  014%=      5-min Rain = 0
KSB1 240742Z 30009KT 23/M05 A2992 RMK A01 T02341054  RH  014%=      5-min Rain = 0
KSB1 240743Z 30009KT 23/M06 A2992 RMK A01 T02331055  RH  014%=      5-min Rain = 0
KSB1 240744Z 31007KT 23/M06 A2992 RMK A01 T02321055  RH  014%=      5-min Rain = 0
KSB1 240745Z 30010KT 23/M06 A2992 RMK A01 T02321055  RH  014%=      5-min Rain = 0
KSB1 240746Z 29009KT 23/M06 A2992 RMK A01 T02321055  RH  014%=      5-min Rain = 0
KSB1 240747Z 30010KT 23/M06 A2992 RMK A01 T02321055  RH  014%=      5-min Rain = 0
KSB1 240748Z 30009KT 23/M05 A2992 RMK A01 T02311054  RH  014%=      5-min Rain = 0
KSB1 240749Z 30010KT 23/M05 A2992 RMK A01 T02321053  RH  014%=      5-min Rain = 0
KSB1 240750Z 30009KT 23/M05 A2992 RMK A01 T02321054  RH  014%=      5-min Rain = 0
KSB1 240751Z 30011KT 23/M05 A2992 RMK A01 T02321054  RH  014%=      5-min Rain = 0
KSB1 240752Z 31011KT 23/M05 A2992 RMK A01 T02321053  RH  014%=      5-min Rain = 0
KSB1 240753Z 30011KT 23/M05 A2992 RMK A01 T02321053  RH  015%=      5-min Rain = 0
KSB1 240754Z 30010KT 23/M05 A2992 RMK A01 T02321054  RH  014%=      5-min Rain = 0
KSB1 240755Z 30011KT 23/M05 A2992 RMK A01 T02311053  RH  015%=      5-min Rain = 0
KSB1 240756Z 31010KT 23/M05 A2992 RMK A01 T02311052  RH  015%=      5-min Rain = 0
KSB1 240757Z 30012KT 23/M05 A2992 RMK A01 T02311051  RH  015%=      5-min Rain = 0
KSB1 240758Z 31011KT 23/M05 A2992 RMK A01 T02311052  RH  015%=      5-min Rain = 0
KSB1 240759Z 30012KT 23/M05 A2992 RMK A01 T02321052  RH  015%=      5-min Rain = 0
KSB1 240800Z 31011KT 23/M05 A2992 RMK A01 T02321052  RH  015%=      5-min Rain = 0
KSB1 240801Z 30012KT 23/M05 A2992 RMK A01 T02321051  RH  015%=      5-min Rain = 0
KSB1 240802Z 30012KT 23/M05 A2992 RMK A01 T02321051  RH  015%=      5-min Rain = 0
KSB1 240803Z 31011KT 23/M05 A2992 RMK A01 T02321050  RH  015%=      5-min Rain = 0
KSB1 240804Z 30009KT 23/M05 A2992 RMK A01 T02321050  RH  015%=      5-min Rain = 0
KSB1 240805Z 30009KT 23/M05 A2992 RMK A01 T02321052  RH  015%=      5-min Rain = 0
KSB1 240806Z 30011KT 23/M05 A2992 RMK A01 T02301052  RH  015%=      5-min Rain = 0
KSB1 240807Z 30010KT 23/M05 A2992 RMK A01 T02301053  RH  015%=      5-min Rain = 0
KSB1 240808Z 29009KT 23/M05 A2992 RMK A01 T02301052  RH  015%=      5-min Rain = 0
KSB1 240809Z 29011KT 23/M05 A2992 RMK A01 T02301051  RH  015%=      5-min Rain = 0
KSB1 240810Z 29008KT 23/M05 A2992 RMK A01 T02301052  RH  015%=      5-min Rain = 0
KSB1 240811Z 29009KT 23/M05 A2992 RMK A01 T02301052  RH  015%=      5-min Rain = 0
KSB1 240812Z 31009KT 23/M05 A2992 RMK A01 T02301051  RH  015%=      5-min Rain = 0
KSB1 240813Z 31009KT 23/M05 A2992 RMK A01 T02301051  RH  015%=      5-min Rain = 0
KSB1 240814Z 29008KT 23/M05 A2992 RMK A01 T02301050  RH  015%=      5-min Rain = 0
KSB1 240815Z 29008KT 23/M05 A2992 RMK A01 T02291051  RH  015%=      5-min Rain = 0
KSB1 240816Z 30009KT 23/M05 A2992 RMK A01 T02281051  RH  015%=      5-min Rain = 0
KSB1 240817Z 29012KT 23/M05 A2992 RMK A01 T02281050  RH  015%=      5-min Rain = 0
KSB1 240818Z 30012KT 23/M05 A2992 RMK A01 T02291050  RH  015%=      5-min Rain = 0
KSB1 240819Z 30011KT 23/M05 A2992 RMK A01 T02301051  RH  015%=      5-min Rain = 0
KSB1 240820Z 30012KT 23/M05 A2992 RMK A01 T02301051  RH  015%=      5-min Rain = 0
KSB1 240821Z 30010KT 23/M05 A2992 RMK A01 T02301051  RH  015%=      5-min Rain = 0
KSB1 240822Z 30010KT 23/M05 A2992 RMK A01 T02301051  RH  015%=      5-min Rain = 0
KSB1 240823Z 30012KT 23/M05 A2992 RMK A01 T02301051  RH  015%=      5-min Rain = 0
KSB1 240824Z 30011KT 23/M05 A2992 RMK A01 T02301052  RH  015%=      5-min Rain = 0
KSB1 240825Z 30011KT 23/M05 A2992 RMK A01 T02291052  RH  015%=      5-min Rain = 0
KSB1 240826Z 31010KT 23/M05 A2992 RMK A01 T02291052  RH  015%=      5-min Rain = 0
KSB1 240827Z 30009KT 23/M05 A2992 RMK A01 T02291051  RH  015%=      5-min Rain = 0
KSB1 240828Z 30008KT 23/M05 A2992 RMK A01 T02281051  RH  015%=      5-min Rain = 0
KSB1 240829Z 30009KT 23/M05 A2993 RMK A01 T02271050  RH  015%=      5-min Rain = 0
KSB1 240830Z 30008KT 23/M05 A2993 RMK A01 T02271050  RH  015%=      5-min Rain = 0
KSB1 240831Z 30009KT 23/M05 A2993 RMK A01 T02261051  RH  015%=      5-min Rain = 0
KSB1 240832Z 30009KT 23/M05 A2993 RMK A01 T02261051  RH  015%=      5-min Rain = 0
KSB1 240833Z 30008KT 23/M05 A2993 RMK A01 T02261051  RH  015%=      5-min Rain = 0
KSB1 240834Z 30007KT 23/M05 A2993 RMK A01 T02261050  RH  015%=      5-min Rain = 0
KSB1 240835Z 30007KT 23/M05 A2993 RMK A01 T02251049  RH  016%=      5-min Rain = 0
KSB1 240836Z 30011KT 23/M05 A2993 RMK A01 T02251047  RH  016%=      5-min Rain = 0
KSB1 240837Z 30009KT 23/M05 A2993 RMK A01 T02261046  RH  016%=      5-min Rain = 0
KSB1 240838Z 30008KT 23/M05 A2993 RMK A01 T02261046  RH  016%=      5-min Rain = 0
KSB1 240839Z 30009KT 23/M05 A2993 RMK A01 T02251047  RH  016%=      5-min Rain = 0
KSB1 240840Z 30008KT 23/M05 A2993 RMK A01 T02251046  RH  016%=      5-min Rain = 0
KSB1 240841Z 29011KT 23/M05 A2993 RMK A01 T02251046  RH  016%=      5-min Rain = 0
KSB1 240842Z 30011KT 23/M04 A2993 RMK A01 T02261044  RH  016%=      5-min Rain = 0
KSB1 240843Z 30011G18KT 23/M04 A2993 RMK A01 T02261043  RH  016%=      5-min Rain = 0
KSB1 240844Z 30012KT 23/M04 A2993 RMK A01 T02271042  RH  016%=      5-min Rain = 0
KSB1 240845Z 31011KT 23/M04 A2993 RMK A01 T02271041  RH  016%=      5-min Rain = 0
KSB1 240846Z 30010KT 23/M04 A2993 RMK A01 T02271039  RH  017%=      5-min Rain = 0
KSB1 240847Z 30012KT 23/M04 A2993 RMK A01 T02271039  RH  017%=      5-min Rain = 0
KSB1 240848Z 30009KT 23/M04 A2993 RMK A01 T02281039  RH  017%=      5-min Rain = 0
KSB1 240849Z 30011KT 23/M04 A2993 RMK A01 T02271039  RH  017%=      5-min Rain = 0
KSB1 240850Z 30009KT 23/M04 A2993 RMK A01 T02271039  RH  017%=      5-min Rain = 0
KSB1 240851Z 30009KT 23/M04 A2993 RMK A01 T02271040  RH  017%=      5-min Rain = 0
KSB1 240852Z 30010KT 23/M04 A2993 RMK A01 T02251039  RH  017%=      5-min Rain = 0
KSB1 240853Z 31009KT 23/M04 A2993 RMK A01 T02251038  RH  017%=      5-min Rain = 0
KSB1 240854Z 30010KT 23/M04 A2993 RMK A01 T02251038  RH  017%=      5-min Rain = 0
KSB1 240855Z 30009KT 23/M04 A2993 RMK A01 T02251037  RH  017%=      5-min Rain = 0
KSB1 240856Z 30009KT 22/M04 A2993 RMK A01 T02241037  RH  017%=      5-min Rain = 0
KSB1 240857Z 30009KT 22/M04 A2993 RMK A01 T02241037  RH  017%=      5-min Rain = 0
KSB1 240858Z 31009KT 22/M04 A2993 RMK A01 T02241036  RH  017%=      5-min Rain = 0
KSB1 240859Z 29009KT 22/M04 A2993 RMK A01 T02241036  RH  017%=      5-min Rain = 0
KSB1 240900Z 31010KT 22/M03 A2993 RMK A01 T02241034  RH  018%=      5-min Rain = 0
KSB1 240901Z 30011KT 22/M03 A2993 RMK A01 T02241034  RH  018%=      5-min Rain = 0
KSB1 240902Z 31009KT 22/M03 A2993 RMK A01 T02241033  RH  018%=      5-min Rain = 0
KSB1 240903Z 31009KT 22/M03 A2993 RMK A01 T02241033  RH  018%=      5-min Rain = 0
KSB1 240904Z 31010KT 22/M03 A2993 RMK A01 T02241033  RH  018%=      5-min Rain = 0
KSB1 240905Z 30008KT 22/M03 A2993 RMK A01 T02241033  RH  018%=      5-min Rain = 0
KSB1 240906Z 30008KT 22/M03 A2993 RMK A01 T02241032  RH  018%=      5-min Rain = 0
KSB1 240907Z 30010KT 22/M03 A2993 RMK A01 T02241031  RH  018%=      5-min Rain = 0
KSB1 240908Z 30009KT 22/M03 A2993 RMK A01 T02241031  RH  018%=      5-min Rain = 0
KSB1 240909Z 31008G13KT 22/M03 A2993 RMK A01 T02241031  RH  018%=      5-min Rain = 0
KSB1 240910Z 31010KT 22/M03 A2993 RMK A01 T02241030  RH  018%=      5-min Rain = 0
KSB1 240911Z 31010KT 22/M03 A2993 RMK A01 T02241030  RH  018%=      5-min Rain = 0
KSB1 240912Z 30008KT 22/M03 A2993 RMK A01 T02241031  RH  018%=      5-min Rain = 0
KSB1 240913Z 30009KT 22/M03 A2993 RMK A01 T02231031  RH  018%=      5-min Rain = 0
KSB1 240914Z 30009KT 22/M03 A2993 RMK A01 T02221031  RH  018%=      5-min Rain = 0
KSB1 240915Z 31008KT 22/M03 A2993 RMK A01 T02221031  RH  018%=      5-min Rain = 0
KSB1 240916Z 31009KT 22/M03 A2993 RMK A01 T02221032  RH  018%=      5-min Rain = 0
KSB1 240917Z 31010G15KT 22/M03 A2993 RMK A01 T02211032  RH  018%=      5-min Rain = 0
KSB1 240918Z 32011KT 22/M03 A2993 RMK A01 T02221032  RH  018%=      5-min Rain = 0
KSB1 240919Z 32011KT 22/M03 A2993 RMK A01 T02221033  RH  018%=      5-min Rain = 0
KSB1 240920Z 31011KT 22/M03 A2993 RMK A01 T02221033  RH  018%=      5-min Rain = 0
KSB1 240921Z 31010KT 22/M03 A2993 RMK A01 T02221033  RH  018%=      5-min Rain = 0
KSB1 240922Z 31010KT 22/M03 A2993 RMK A01 T02221034  RH  018%=      5-min Rain = 0
KSB1 240923Z 30009KT 22/M03 A2993 RMK A01 T02211034  RH  018%=      5-min Rain = 0
KSB1 240924Z 31009KT 22/M04 A2994 RMK A01 T02211035  RH  018%=      5-min Rain = 0
KSB1 240925Z 31010KT 22/M04 A2994 RMK A01 T02211035  RH  018%=      5-min Rain = 0
KSB1 240926Z 32010KT 22/M04 A2994 RMK A01 T02211036  RH  018%=      5-min Rain = 0
KSB1 240927Z 31008KT 22/M04 A2994 RMK A01 T02211037  RH  018%=      5-min Rain = 0
KSB1 240928Z 31010KT 22/M04 A2994 RMK A01 T02211037  RH  017%=      5-min Rain = 0
KSB1 240929Z 31011KT 22/M04 A2994 RMK A01 T02211037  RH  017%=      5-min Rain = 0
KSB1 240930Z 30011KT 22/M04 A2994 RMK A01 T02211038  RH  017%=      5-min Rain = 0
KSB1 240931Z 31008KT 22/M04 A2994 RMK A01 T02211039  RH  017%=      5-min Rain = 0
KSB1 240932Z 32012KT 22/M04 A2994 RMK A01 T02211039  RH  017%=      5-min Rain = 0
KSB1 240933Z 32009KT 22/M04 A2994 RMK A01 T02201038  RH  017%=      5-min Rain = 0
KSB1 240934Z 31007KT 22/M04 A2994 RMK A01 T02201040  RH  017%=      5-min Rain = 0
KSB1 240935Z 31008KT 22/M04 A2994 RMK A01 T02191040  RH  017%=      5-min Rain = 0
KSB1 240936Z 31008KT 22/M04 A2994 RMK A01 T02181040  RH  017%=      5-min Rain = 0
KSB1 240937Z 32009KT 22/M04 A2994 RMK A01 T02181041  RH  017%=      5-min Rain = 0
KSB1 240938Z 32009KT 22/M04 A2994 RMK A01 T02171041  RH  017%=      5-min Rain = 0
KSB1 240939Z 30009KT 22/M04 A2994 RMK A01 T02171040  RH  018%=      5-min Rain = 0
KSB1 240940Z 30007KT 22/M04 A2994 RMK A01 T02171041  RH  017%=      5-min Rain = 0
KSB1 240941Z 31008KT 22/M04 A2994 RMK A01 T02161040  RH  018%=      5-min Rain = 0
KSB1 240942Z 31009KT 22/M04 A2994 RMK A01 T02151037  RH  018%=      5-min Rain = 0
KSB1 240943Z 31006KT 22/M04 A2994 RMK A01 T02151037  RH  018%=      5-min Rain = 0
KSB1 240944Z 29005KT 22/M04 A2994 RMK A01 T02151038  RH  018%=      5-min Rain = 0
KSB1 240945Z 30003KT 21/M04 A2994 RMK A01 T02131038  RH  018%=      5-min Rain = 0
KSB1 240946Z 27003KT 21/M04 A2994 RMK A01 T02121041  RH  018%=      5-min Rain = 0
KSB1 240947Z 26003KT 21/M04 A2994 RMK A01 T02091043  RH  018%=      5-min Rain = 0
KSB1 240948Z 28002KT 21/M04 A2994 RMK A01 T02061044  RH  018%=      5-min Rain = 0
KSB1 240949Z 02002KT 21/M04 A2994 RMK A01 T02051043  RH  019%=      5-min Rain = 0
KSB1 240950Z 01005KT 20/M04 A2994 RMK A01 T02031044  RH  019%=      5-min Rain = 0
KSB1 240951Z 34004KT 20/M05 A2994 RMK A01 T02011045  RH  019%=      5-min Rain = 0
KSB1 240952Z 33004KT 20/M04 A2994 RMK A01 T02001042  RH  019%=      5-min Rain = 0
KSB1 240953Z 01002KT 20/M04 A2994 RMK A01 T02011042  RH  019%=      5-min Rain = 0
KSB1 240954Z 04002KT 20/M04 A2994 RMK A01 T02021043  RH  019%=      5-min Rain = 0
KSB1 240955Z 05002KT 20/M04 A2994 RMK A01 T02011044  RH  019%=      5-min Rain = 0
KSB1 240956Z 04002KT 20/M05 A2995 RMK A01 T01991045  RH  019%=      5-min Rain = 0
KSB1 240957Z 05002KT 20/M05 A2995 RMK A01 T01981045  RH  019%=      5-min Rain = 0
KSB1 240958Z 34003KT 20/M04 A2995 RMK A01 T01981042  RH  019%=      5-min Rain = 0
KSB1 240959Z 27001KT 20/M04 A2995 RMK A01 T01971043  RH  019%=      5-min Rain = 0
KSB1 241000Z 35002KT 20/M04 A2995 RMK A01 T01971042  RH  020%=      5-min Rain = 0
KSB1 241001Z 33002KT 20/M04 A2995 RMK A01 T01971042  RH  019%=      5-min Rain = 0
KSB1 241002Z 02003KT 20/M04 A2995 RMK A01 T01981040  RH  020%=      5-min Rain = 0
KSB1 241003Z 36003KT 20/M04 A2995 RMK A01 T02001040  RH  019%=      5-min Rain = 0
KSB1 241004Z 02003KT 20/M04 A2995 RMK A01 T02011039  RH  019%=      5-min Rain = 0
KSB1 241005Z 01003KT 20/M04 A2995 RMK A01 T02021039  RH  019%=      5-min Rain = 0
KSB1 241006Z 01003KT 20/M04 A2995 RMK A01 T02031039  RH  019%=      5-min Rain = 0
KSB1 241007Z 29003KT 20/M04 A2995 RMK A01 T02031040  RH  019%=      5-min Rain = 0
KSB1 241008Z 33006KT 20/M04 A2995 RMK A01 T02031036  RH  020%=      5-min Rain = 0
KSB1 241009Z 32007KT 20/M04 A2995 RMK A01 T02031037  RH  020%=      5-min Rain = 0
KSB1 241010Z 32007KT 20/M03 A2995 RMK A01 T02041034  RH  020%=      5-min Rain = 0
KSB1 241011Z 31006KT 21/M04 A2995 RMK A01 T02051035  RH  020%=      5-min Rain = 0
KSB1 241012Z 32007KT 21/M03 A2995 RMK A01 T02051033  RH  020%=      5-min Rain = 0
KSB1 241013Z 32007KT 21/M03 A2995 RMK A01 T02071031  RH  020%=      5-min Rain = 0
KSB1 241014Z 32006KT 21/M03 A2996 RMK A01 T02071031  RH  020%=      5-min Rain = 0
KSB1 241015Z 32006KT 21/M03 A2996 RMK A01 T02071031  RH  020%=      5-min Rain = 0
KSB1 241016Z 34005KT 21/M03 A2996 RMK A01 T02061032  RH  020%=      5-min Rain = 0
KSB1 241017Z 35004KT 20/M03 A2996 RMK A01 T02041034  RH  020%=      5-min Rain = 0
KSB1 241018Z 35003KT 20/M04 A2996 RMK A01 T02031035  RH  020%=      5-min Rain = 0
KSB1 241019Z 35003KT 20/M04 A2996 RMK A01 T02011035  RH  020%=      5-min Rain = 0
KSB1 241020Z 35003KT 20/M04 A2996 RMK A01 T02001036  RH  020%=      5-min Rain = 0
KSB1 241021Z 36003KT 20/M04 A2996 RMK A01 T02001036  RH  020%=      5-min Rain = 0
KSB1 241022Z 01004KT 20/M04 A2996 RMK A01 T02001036  RH  020%=      5-min Rain = 0
KSB1 241023Z 01003KT 20/M04 A2996 RMK A01 T02001036  RH  020%=      5-min Rain = 0
KSB1 241024Z 36003KT 20/M04 A2996 RMK A01 T01991036  RH  020%=      5-min Rain = 0
KSB1 241025Z 35003KT 20/M04 A2996 RMK A01 T01981036  RH  020%=      5-min Rain = 0
KSB1 241026Z 35003KT 20/M04 A2996 RMK A01 T01971036  RH  020%=      5-min Rain = 0
KSB1 241027Z 35003KT 20/M04 A2996 RMK A01 T01961036  RH  021%=      5-min Rain = 0
KSB1 241028Z 34003KT 20/M04 A2996 RMK A01 T01961036  RH  021%=      5-min Rain = 0
KSB1 241029Z 34003KT 20/M04 A2996 RMK A01 T01971035  RH  021%=      5-min Rain = 0
KSB1 241030Z 34003KT 20/M04 A2996 RMK A01 T01981035  RH  021%=      5-min Rain = 0
KSB1 241031Z 34003KT 20/M04 A2996 RMK A01 T01981035  RH  020%=      5-min Rain = 0
KSB1 241032Z 33004KT 20/M04 A2996 RMK A01 T01981035  RH  020%=      5-min Rain = 0
KSB1 241033Z 34004KT 20/M03 A2996 RMK A01 T01981034  RH  021%=      5-min Rain = 0
KSB1 241034Z 33004KT 20/M03 A2996 RMK A01 T01991033  RH  021%=      5-min Rain = 0
KSB1 241035Z 33004KT 20/M03 A2996 RMK A01 T01991034  RH  020%=      5-min Rain = 0
KSB1 241036Z 33005KT 20/M04 A2996 RMK A01 T01981035  RH  021%=      5-min Rain = 0
KSB1 241037Z 32005KT 20/M03 A2996 RMK A01 T01971034  RH  021%=      5-min Rain = 0
KSB1 241038Z 32005KT 20/M03 A2996 RMK A01 T01961034  RH  021%=      5-min Rain = 0
KSB1 241039Z 32005KT 20/M03 A2996 RMK A01 T01961034  RH  021%=      5-min Rain = 0
KSB1 241040Z 31006KT 20/M03 A2996 RMK A01 T01961033  RH  021%=      5-min Rain = 0
KSB1 241041Z 31006KT 20/M03 A2996 RMK A01 T01951033  RH  021%=      5-min Rain = 0
KSB1 241042Z 32007KT 20/M03 A2996 RMK A01 T01951032  RH  021%=      5-min Rain = 0
KSB1 241043Z 31007KT 20/M03 A2996 RMK A01 T01961029  RH  022%=      5-min Rain = 0
KSB1 241044Z 31006KT 20/M03 A2996 RMK A01 T01981029  RH  021%=      5-min Rain = 0
KSB1 241045Z 32007KT 20/M03 A2996 RMK A01 T01981029  RH  021%=      5-min Rain = 0
KSB1 241046Z 31007KT 20/M03 A2996 RMK A01 T01991028  RH  021%=      5-min Rain = 0
KSB1 241047Z 31009KT 20/M03 A2996 RMK A01 T02001026  RH  022%=      5-min Rain = 0
KSB1 241048Z 31009KT 20/M03 A2996 RMK A01 T02011025  RH  022%=      5-min Rain = 0
KSB1 241049Z 31010KT 20/M02 A2996 RMK A01 T02021023  RH  022%=      5-min Rain = 0
KSB1 241050Z 31010KT 20/M02 A2996 RMK A01 T02041021  RH  022%=      5-min Rain = 0
KSB1 241051Z 31011KT 21/M02 A2996 RMK A01 T02051022  RH  022%=      5-min Rain = 0
KSB1 241052Z 31011KT 21/M02 A2996 RMK A01 T02061020  RH  022%=      5-min Rain = 0
KSB1 241053Z 31012KT 21/M02 A2996 RMK A01 T02071019  RH  022%=      5-min Rain = 0
KSB1 241054Z 31010KT 21/M02 A2996 RMK A01 T02081019  RH  022%=      5-min Rain = 0
KSB1 241055Z 31010KT 21/M02 A2996 RMK A01 T02081019  RH  022%=      5-min Rain = 0
KSB1 241056Z 31011KT 21/M02 A2996 RMK A01 T02071020  RH  022%=      5-min Rain = 0
KSB1 241057Z 31012KT 21/M02 A2996 RMK A01 T02071019  RH  022%=      5-min Rain = 0
KSB1 241058Z 31014KT 21/M02 A2995 RMK A01 T02071018  RH  022%=      5-min Rain = 0
KSB1 241059Z 31011KT 21/M02 A2996 RMK A01 T02081017  RH  022%=      5-min Rain = 0
KSB1 241100Z 31013KT 21/M02 A2996 RMK A01 T02091017  RH  022%=      5-min Rain = 0
KSB1 241101Z 31014KT 21/M02 A2995 RMK A01 T02091016  RH  022%=      5-min Rain = 0
KSB1 241102Z 31014KT 21/M02 A2995 RMK A01 T02091016  RH  022%=      5-min Rain = 0
KSB1 241103Z 31016G21KT 21/M02 A2995 RMK A01 T02101016  RH  022%=      5-min Rain = 0
KSB1 241104Z 31016KT 21/M02 A2995 RMK A01 T02101015  RH  022%=      5-min Rain = 0
KSB1 241105Z 31014KT 21/M02 A2995 RMK A01 T02101015  RH  022%=      5-min Rain = 0
KSB1 241106Z 31015KT 21/M01 A2995 RMK A01 T02101014  RH  022%=      5-min Rain = 0
KSB1 241107Z 31015KT 21/M01 A2995 RMK A01 T02101014  RH  022%=      5-min Rain = 0
KSB1 241108Z 31013KT 21/M01 A2995 RMK A01 T02101014  RH  022%=      5-min Rain = 0
KSB1 241109Z 31017KT 21/M01 A2995 RMK A01 T02091014  RH  022%=      5-min Rain = 0
KSB1 241110Z 30014KT 21/M01 A2995 RMK A01 T02101013  RH  022%=      5-min Rain = 0
KSB1 241111Z 31017KT 21/M01 A2995 RMK A01 T02101013  RH  022%=      5-min Rain = 0
KSB1 241112Z 31017KT 21/M01 A2995 RMK A01 T02101013  RH  022%=      5-min Rain = 0
KSB1 241113Z 31015KT 21/M01 A2995 RMK A01 T02101013  RH  022%=      5-min Rain = 0
KSB1 241114Z 31015KT 21/M01 A2995 RMK A01 T02101013  RH  022%=      5-min Rain = 0
KSB1 241115Z 31015G21KT 21/M01 A2995 RMK A01 T02101013  RH  022%=      5-min Rain = 0
KSB1 241116Z 31014KT 21/M01 A2995 RMK A01 T02101012  RH  023%=      5-min Rain = 0
KSB1 241117Z 31016KT 21/M01 A2995 RMK A01 T02091012  RH  023%=      5-min Rain = 0
KSB1 241118Z 31013KT 21/M01 A2995 RMK A01 T02091012  RH  023%=      5-min Rain = 0
KSB1 241119Z 31015G20KT 21/M01 A2995 RMK A01 T02091012  RH  023%=      5-min Rain = 0
KSB1 241120Z 31016KT 21/M01 A2995 RMK A01 T02091011  RH  023%=      5-min Rain = 0
KSB1 241121Z 31014KT 21/M01 A2995 RMK A01 T02091011  RH  023%=      5-min Rain = 0
KSB1 241122Z 31016KT 21/M01 A2995 RMK A01 T02101011  RH  023%=      5-min Rain = 0
KSB1 241123Z 31015KT 21/M01 A2995 RMK A01 T02101010  RH  023%=      5-min Rain = 0
KSB1 241124Z 31017G22KT 21/M01 A2995 RMK A01 T02111010  RH  023%=      5-min Rain = 0
KSB1 241125Z 32017KT 21/M01 A2995 RMK A01 T02111010  RH  023%=      5-min Rain = 0
KSB1 241126Z 31019KT 21/M01 A2995 RMK A01 T02111011  RH  023%=      5-min Rain = 0
KSB1 241127Z 32018KT 21/M01 A2995 RMK A01 T02111010  RH  023%=      5-min Rain = 0
KSB1 241128Z 31015KT 21/M01 A2995 RMK A01 T02111011  RH  023%=      5-min Rain = 0
KSB1 241129Z 31015KT 21/M01 A2995 RMK A01 T02101012  RH  023%=      5-min Rain = 0
KSB1 241130Z 32014KT 21/M01 A2996 RMK A01 T02091012  RH  023%=      5-min Rain = 0
KSB1 241131Z 31013KT 21/M01 A2995 RMK A01 T02081012  RH  023%=      5-min Rain = 0
KSB1 241132Z 31013KT 21/M01 A2996 RMK A01 T02071012  RH  023%=      5-min Rain = 0
KSB1 241133Z 31016KT 21/M01 A2995 RMK A01 T02061011  RH  023%=      5-min Rain = 0
KSB1 241134Z 31017KT 21/M01 A2995 RMK A01 T02071011  RH  023%=      5-min Rain = 0
KSB1 241135Z 32015KT 21/M01 A2996 RMK A01 T02081012  RH  023%=      5-min Rain = 0
KSB1 241136Z 32013KT 21/M01 A2996 RMK A01 T02071012  RH  023%=      5-min Rain = 0
KSB1 241137Z 32012KT 21/M01 A2996 RMK A01 T02061013  RH  023%=      5-min Rain = 0
KSB1 241138Z 32013KT 20/M01 A2996 RMK A01 T02041013  RH  023%=      5-min Rain = 0
KSB1 241139Z 31013KT 20/M01 A2996 RMK A01 T02041013  RH  023%=      5-min Rain = 0
KSB1 241140Z 32013KT 20/M01 A2996 RMK A01 T02031014  RH  023%=      5-min Rain = 0
KSB1 241141Z 32013KT 20/M01 A2996 RMK A01 T02031013  RH  023%=      5-min Rain = 0
KSB1 241142Z 32012KT 20/M01 A2996 RMK A01 T02031013  RH  023%=      5-min Rain = 0
KSB1 241143Z 32013G18KT 20/M01 A2996 RMK A01 T02021014  RH  023%=      5-min Rain = 0
KSB1 241144Z 32012KT 20/M01 A2996 RMK A01 T02021013  RH  023%=      5-min Rain = 0
KSB1 241145Z 32013KT 20/M01 A2996 RMK A01 T02021014  RH  023%=      5-min Rain = 0
KSB1 241146Z 32012KT 20/M01 A2996 RMK A01 T02011013  RH  024%=      5-min Rain = 0
KSB1 241147Z 32012KT 20/M01 A2996 RMK A01 T02011014  RH  023%=      5-min Rain = 0
KSB1 241148Z 32013KT 20/M01 A2996 RMK A01 T02011013  RH  024%=      5-min Rain = 0
KSB1 241149Z 32012G17KT 20/M01 A2997 RMK A01 T02001014  RH  024%=      5-min Rain = 0
KSB1 241150Z 33010KT 20/M01 A2997 RMK A01 T02001014  RH  024%=      5-min Rain = 0
KSB1 241151Z 32012KT 20/M02 A2997 RMK A01 T01991015  RH  024%=      5-min Rain = 0
KSB1 241152Z 32011KT 20/M02 A2997 RMK A01 T01981015  RH  024%=      5-min Rain = 0
KSB1 241153Z 32010KT 20/M02 A2997 RMK A01 T01981015  RH  024%=      5-min Rain = 0
KSB1 241154Z 32011KT 20/M01 A2997 RMK A01 T01981014  RH  024%=      5-min Rain = 0
KSB1 241155Z 32010KT 20/M01 A2997 RMK A01 T01981014  RH  024%=      5-min Rain = 0
KSB1 241156Z 32011KT 20/M02 A2997 RMK A01 T01971015  RH  024%=      5-min Rain = 0
KSB1 241157Z 32013KT 20/M01 A2997 RMK A01 T01971014  RH  024%=      5-min Rain = 0
KSB1 241158Z 32011KT 20/M01 A2997 RMK A01 T01981013  RH  024%=      5-min Rain = 0
KSB1 241159Z 32011KT 20/M01 A2997 RMK A01 T01981014  RH  024%=      5-min Rain = 0
KSB1 241200Z 32010KT 20/M02 A2997 RMK A01 T01971016  RH  024%=      5-min Rain = 0
KSB1 241201Z 32011KT 20/M02 A2997 RMK A01 T01951018  RH  024%=      5-min Rain = 0
KSB1 241202Z 32011KT 20/M02 A2997 RMK A01 T01951017  RH  024%=      5-min Rain = 0
KSB1 241203Z 32011KT 20/M02 A2997 RMK A01 T01951017  RH  024%=      5-min Rain = 0
KSB1 241204Z 32012KT 20/M02 A2997 RMK A01 T01951017  RH  024%=      5-min Rain = 0
KSB1 241205Z 32010KT 20/M02 A2997 RMK A01 T01951016  RH  024%=      5-min Rain = 0
KSB1 241206Z 32013KT 20/M02 A2997 RMK A01 T01961016  RH  024%=      5-min Rain = 0
KSB1 241207Z 32013KT 20/M02 A2997 RMK A01 T01961016  RH  024%=      5-min Rain = 0
KSB1 241208Z 31012KT 20/M02 A2997 RMK A01 T01971016  RH  024%=      5-min Rain = 0
KSB1 241209Z 32012KT 20/M02 A2997 RMK A01 T01971017  RH  024%=      5-min Rain = 0
KSB1 241210Z 32014KT 20/M02 A2997 RMK A01 T01961017  RH  024%=      5-min Rain = 0
KSB1 241211Z 32011KT 20/M02 A2997 RMK A01 T01971017  RH  024%=      5-min Rain = 0
KSB1 241212Z 31011KT 20/M02 A2997 RMK A01 T01971017  RH  023%=      5-min Rain = 0
KSB1 241213Z 31013KT 20/M02 A2997 RMK A01 T01971018  RH  023%=      5-min Rain = 0
KSB1 241214Z 32013G18KT 20/M02 A2997 RMK A01 T01971018  RH  023%=      5-min Rain = 0
KSB1 241215Z 31014KT 20/M02 A2997 RMK A01 T01971018  RH  023%=      5-min Rain = 0
KSB1 241216Z 32014KT 20/M02 A2997 RMK A01 T01981018  RH  023%=      5-min Rain = 0
KSB1 241217Z 32016KT 20/M02 A2997 RMK A01 T01981017  RH  023%=      5-min Rain = 0
KSB1 241218Z 31016KT 20/M02 A2997 RMK A01 T01991016  RH  023%=      5-min Rain = 0
KSB1 241219Z 31015KT 20/M02 A2997 RMK A01 T02001016  RH  023%=      5-min Rain = 0
KSB1 241220Z 32013KT 20/M02 A2997 RMK A01 T02001017  RH  023%=      5-min Rain = 0
KSB1 241221Z 31014KT 20/M02 A2997 RMK A01 T01991016  RH  023%=      5-min Rain = 0
KSB1 241222Z 32014KT 20/M02 A2997 RMK A01 T02001016  RH  023%=      5-min Rain = 0
KSB1 241223Z 31015KT 20/M02 A2997 RMK A01 T02001016  RH  023%=      5-min Rain = 0
KSB1 241224Z 32014KT 20/M02 A2997 RMK A01 T02001016  RH  023%=      5-min Rain = 0
KSB1 241225Z 31013KT 20/M02 A2997 RMK A01 T02001016  RH  023%=      5-min Rain = 0
KSB1 241226Z 31014KT 20/M02 A2997 RMK A01 T01991016  RH  023%=      5-min Rain = 0
KSB1 241227Z 32014KT 20/M02 A2997 RMK A01 T02001016  RH  023%=      5-min Rain = 0
KSB1 241228Z 31014KT 20/M02 A2998 RMK A01 T01991016  RH  023%=      5-min Rain = 0
KSB1 241229Z 31015KT 20/M02 A2998 RMK A01 T02001015  RH  023%=      5-min Rain = 0
KSB1 241230Z 31015KT 20/M02 A2998 RMK A01 T02001015  RH  023%=      5-min Rain = 0
KSB1 241231Z 31015KT 20/M02 A2998 RMK A01 T02001015  RH  023%=      5-min Rain = 0
KSB1 241232Z 31015KT 20/M01 A2998 RMK A01 T02001014  RH  023%=      5-min Rain = 0
KSB1 241233Z 31016KT 20/M01 A2998 RMK A01 T02011014  RH  023%=      5-min Rain = 0
KSB1 241234Z 31015KT 20/M02 A2997 RMK A01 T02011015  RH  023%=      5-min Rain = 0
KSB1 241235Z 31016KT 20/M01 A2998 RMK A01 T02021014  RH  023%=      5-min Rain = 0
KSB1 241236Z 31014KT 20/M01 A2998 RMK A01 T02021014  RH  023%=      5-min Rain = 0
KSB1 241237Z 31016KT 20/M01 A2998 RMK A01 T02021014  RH  023%=      5-min Rain = 0
KSB1 241238Z 32015KT 20/M01 A2998 RMK A01 T02021014  RH  023%=      5-min Rain = 0
KSB1 241239Z 32015KT 20/M01 A2998 RMK A01 T02031014  RH  023%=      5-min Rain = 0
KSB1 241240Z 31015KT 20/M01 A2998 RMK A01 T02031014  RH  023%=      5-min Rain = 0
KSB1 241241Z 32015KT 20/M01 A2998 RMK A01 T02031014  RH  023%=      5-min Rain = 0
KSB1 241242Z 31013KT 20/M01 A2998 RMK A01 T02041012  RH  023%=      5-min Rain = 0
KSB1 241243Z 31014KT 20/M01 A2998 RMK A01 T02041013  RH  023%=      5-min Rain = 0
KSB1 241244Z 31014KT 20/M01 A2998 RMK A01 T02041013  RH  023%=      5-min Rain = 0
KSB1 241245Z 31016KT 21/M01 A2998 RMK A01 T02051013  RH  023%=      5-min Rain = 0
KSB1 241246Z 31016KT 21/M01 A2998 RMK A01 T02051014  RH  023%=      5-min Rain = 0
KSB1 241247Z 31015KT 21/M01 A2998 RMK A01 T02051014  RH  023%=      5-min Rain = 0
KSB1 241248Z 32014KT 21/M01 A2998 RMK A01 T02051014  RH  023%=      5-min Rain = 0
KSB1 241249Z 31014KT 20/M02 A2998 RMK A01 T02041015  RH  023%=      5-min Rain = 0
KSB1 241250Z 31014KT 21/M01 A2998 RMK A01 T02051014  RH  023%=      5-min Rain = 0
KSB1 241251Z 31013KT 20/M02 A2998 RMK A01 T02041015  RH  023%=      5-min Rain = 0
KSB1 241252Z 31014KT 20/M02 A2998 RMK A01 T02041015  RH  023%=      5-min Rain = 0
KSB1 241253Z 32013KT 20/M02 A2998 RMK A01 T02041015  RH  023%=      5-min Rain = 0
KSB1 241254Z 32014KT 20/M01 A2998 RMK A01 T02041014  RH  023%=      5-min Rain = 0
KSB1 241255Z 32012KT 20/M01 A2998 RMK A01 T02041014  RH  023%=      5-min Rain = 0
KSB1 241256Z 31013KT 20/M01 A2998 RMK A01 T02041014  RH  023%=      5-min Rain = 0
KSB1 241257Z 31014KT 20/M01 A2998 RMK A01 T02041014  RH  023%=      5-min Rain = 0
KSB1 241258Z 32014KT 20/M01 A2998 RMK A01 T02041014  RH  023%=      5-min Rain = 0
KSB1 241259Z 31015KT 20/M01 A2998 RMK A01 T02041014  RH  023%=      5-min Rain = 0
KSB1 241300Z 31013KT 20/M01 A2998 RMK A01 T02041013  RH  023%=      5-min Rain = 0
KSB1 241301Z 31014KT 20/M01 A2998 RMK A01 T02041014  RH  023%=      5-min Rain = 0
KSB1 241302Z 32014KT 20/M01 A2998 RMK A01 T02041013  RH  023%=      5-min Rain = 0
KSB1 241303Z 31014KT 21/M01 A2998 RMK A01 T02051014  RH  023%=      5-min Rain = 0
KSB1 241304Z 31014KT 21/M01 A2998 RMK A01 T02051013  RH  023%=      5-min Rain = 0
KSB1 241305Z 31015KT 21/M01 A2998 RMK A01 T02051013  RH  023%=      5-min Rain = 0
KSB1 241306Z 31014KT 21/M01 A2998 RMK A01 T02061013  RH  023%=      5-min Rain = 0
KSB1 241307Z 31014KT 21/M01 A2998 RMK A01 T02061013  RH  023%=      5-min Rain = 0
KSB1 241308Z 31014KT 21/M01 A2998 RMK A01 T02061013  RH  023%=      5-min Rain = 0
KSB1 241309Z 32015KT 21/M01 A2998 RMK A01 T02061013  RH  023%=      5-min Rain = 0
KSB1 241310Z 31012KT 21/M01 A2998 RMK A01 T02061013  RH  023%=      5-min Rain = 0
KSB1 241311Z 31014KT 21/M01 A2998 RMK A01 T02061012  RH  023%=      5-min Rain = 0
KSB1 241312Z 32012KT 21/M01 A2998 RMK A01 T02061012  RH  023%=      5-min Rain = 0
KSB1 241313Z 31012KT 21/M01 A2998 RMK A01 T02061012  RH  023%=      5-min Rain = 0
KSB1 241314Z 31013KT 21/M01 A2998 RMK A01 T02061012  RH  023%=      5-min Rain = 0
KSB1 241315Z 31014KT 21/M01 A2998 RMK A01 T02071012  RH  023%=      5-min Rain = 0
KSB1 241316Z 31014KT 21/M01 A2998 RMK A01 T02071011  RH  023%=      5-min Rain = 0
KSB1 241317Z 31015KT 21/M01 A2998 RMK A01 T02081011  RH  023%=      5-min Rain = 0
KSB1 241318Z 31013KT 21/M01 A2998 RMK A01 T02071011  RH  023%=      5-min Rain = 0
KSB1 241319Z 31011KT 21/M01 A2998 RMK A01 T02081011  RH  023%=      5-min Rain = 0
KSB1 241320Z 31012KT 21/M01 A2998 RMK A01 T02081010  RH  023%=      5-min Rain = 0
KSB1 241321Z 31013KT 21/M01 A2998 RMK A01 T02091011  RH  023%=      5-min Rain = 0
KSB1 241322Z 31014KT 21/M01 A2998 RMK A01 T02081011  RH  023%=      5-min Rain = 0
KSB1 241323Z 31013KT 21/M01 A2998 RMK A01 T02081011  RH  023%=      5-min Rain = 0
KSB1 241324Z 31015KT 21/M01 A2998 RMK A01 T02091010  RH  023%=      5-min Rain = 0
KSB1 241325Z 31014KT 21/M01 A2998 RMK A01 T02091010  RH  023%=      5-min Rain = 0
KSB1 241326Z 31011KT 21/M01 A2998 RMK A01 T02091010  RH  023%=      5-min Rain = 0
KSB1 241327Z 31012KT 21/M01 A2998 RMK A01 T02101009  RH  023%=      5-min Rain = 0
KSB1 241328Z 31013KT 21/M01 A2998 RMK A01 T02101010  RH  023%=      5-min Rain = 0
KSB1 241329Z 31012KT 21/M01 A2998 RMK A01 T02101010  RH  023%=      5-min Rain = 0
KSB1 241330Z 31013KT 21/M01 A2998 RMK A01 T02111009  RH  023%=      5-min Rain = 0
KSB1 241331Z 31012KT 21/M01 A2998 RMK A01 T02111009  RH  023%=      5-min Rain = 0
KSB1 241332Z 31012KT 21/M01 A2998 RMK A01 T02111009  RH  023%=      5-min Rain = 0
KSB1 241333Z 31014KT 21/M01 A2998 RMK A01 T02111009  RH  023%=      5-min Rain = 0
KSB1 241334Z 32012KT 21/M01 A2998 RMK A01 T02121009  RH  023%=      5-min Rain = 0
KSB1 241335Z 31014KT 21/M01 A2998 RMK A01 T02121009  RH  023%=      5-min Rain = 0
KSB1 241336Z 31014KT 21/M01 A2998 RMK A01 T02121009  RH  023%=      5-min Rain = 0
KSB1 241337Z 31011KT 21/M01 A2998 RMK A01 T02121009  RH  023%=      5-min Rain = 0
KSB1 241338Z 31012KT 21/M01 A2998 RMK A01 T02121008  RH  023%=      5-min Rain = 0
KSB1 241339Z 31012KT 21/M01 A2998 RMK A01 T02131009  RH  023%=      5-min Rain = 0
KSB1 241340Z 31014KT 21/M01 A2998 RMK A01 T02131009  RH  023%=      5-min Rain = 0
KSB1 241341Z 31013KT 21/M01 A2998 RMK A01 T02141009  RH  023%=      5-min Rain = 0
KSB1 241342Z 31014KT 21/M01 A2998 RMK A01 T02141009  RH  022%=      5-min Rain = 0
KSB1 241343Z 31014KT 21/M01 A2998 RMK A01 T02141009  RH  022%=      5-min Rain = 0
KSB1 241344Z 31013KT 22/M01 A2998 RMK A01 T02151009  RH  022%=      5-min Rain = 0
KSB1 241345Z 31012KT 22/M01 A2998 RMK A01 T02151008  RH  022%=      5-min Rain = 0
KSB1 241346Z 31014KT 22/M01 A2998 RMK A01 T02151008  RH  022%=      5-min Rain = 0
KSB1 241347Z 31014KT 22/M01 A2998 RMK A01 T02151008  RH  022%=      5-min Rain = 0
KSB1 241348Z 31014KT 22/M01 A2998 RMK A01 T02151008  RH  023%=      5-min Rain = 0
KSB1 241349Z 31015KT 22/M01 A2998 RMK A01 T02151008  RH  023%=      5-min Rain = 0
KSB1 241350Z 31014KT 22/M01 A2999 RMK A01 T02151008  RH  022%=      5-min Rain = 0
KSB1 241351Z 31015KT 22/M01 A2998 RMK A01 T02151008  RH  022%=      5-min Rain = 0
KSB1 241352Z 31015KT 22/M01 A2998 RMK A01 T02151009  RH  022%=      5-min Rain = 0
KSB1 241353Z 31013KT 22/M01 A2999 RMK A01 T02161008  RH  022%=      5-min Rain = 0
KSB1 241354Z 31013KT 22/M01 A2999 RMK A01 T02171007  RH  022%=      5-min Rain = 0
KSB1 241355Z 31014KT 22/M01 A2998 RMK A01 T02181007  RH  022%=      5-min Rain = 0
KSB1 241356Z 31018KT 22/M01 A2998 RMK A01 T02181008  RH  022%=      5-min Rain = 0
KSB1 241357Z 31015KT 22/M01 A2999 RMK A01 T02181008  RH  022%=      5-min Rain = 0
KSB1 241358Z 31014KT 22/M01 A2999 RMK A01 T02181007  RH  022%=      5-min Rain = 0
KSB1 241359Z 30015KT 22/M01 A2998 RMK A01 T02181007  RH  022%=      5-min Rain = 0
KSB1 241400Z 30014KT 22/M01 A2999 RMK A01 T02181007  RH  022%=      5-min Rain = 0
KSB1 241401Z 30012KT 22/M01 A2999 RMK A01 T02191007  RH  022%=      5-min Rain = 0
KSB1 241402Z 30015KT 22/M01 A2999 RMK A01 T02201007  RH  022%=      5-min Rain = 0
KSB1 241403Z 31015KT 22/M01 A2999 RMK A01 T02201007  RH  022%=      5-min Rain = 0
KSB1 241404Z 30014KT 22/M01 A2999 RMK A01 T02191007  RH  022%=      5-min Rain = 0
KSB1 241405Z 30016KT 22/M01 A2999 RMK A01 T02201008  RH  022%=      5-min Rain = 0
KSB1 241406Z 31014KT 22/M01 A2999 RMK A01 T02211006  RH  022%=      5-min Rain = 0
KSB1 241407Z 30015G21KT 22/M01 A2999 RMK A01 T02211006  RH  022%=      5-min Rain = 0
KSB1 241408Z 31015KT 22/M01 A2999 RMK A01 T02211006  RH  022%=      5-min Rain = 0
KSB1 241409Z 31014KT 22/M01 A2999 RMK A01 T02211005  RH  022%=      5-min Rain = 0
KSB1 241410Z 31014KT 22/M01 A2999 RMK A01 T02211005  RH  022%=      5-min Rain = 0
KSB1 241411Z 31015KT 22/M01 A2999 RMK A01 T02221005  RH  022%=      5-min Rain = 0
KSB1 241412Z 31013KT 22/M01 A2999 RMK A01 T02221005  RH  022%=      5-min Rain = 0
KSB1 241413Z 31014KT 22/M00 A2999 RMK A01 T02221004  RH  022%=      5-min Rain = 0
KSB1 241414Z 31016KT 22/M01 A2999 RMK A01 T02231005  RH  022%=      5-min Rain = 0
KSB1 241415Z 31015KT 22/M01 A2999 RMK A01 T02231006  RH  022%=      5-min Rain = 0
KSB1 241416Z 31015KT 22/M01 A2999 RMK A01 T02231005  RH  022%=      5-min Rain = 0
KSB1 241417Z 32017KT 22/M01 A2999 RMK A01 T02231006  RH  022%=      5-min Rain = 0
KSB1 241418Z 31016KT 22/M01 A2999 RMK A01 T02231007  RH  022%=      5-min Rain = 0
KSB1 241419Z 31014KT 22/M01 A2999 RMK A01 T02231007  RH  022%=      5-min Rain = 0
KSB1 241420Z 32016KT 22/M01 A2999 RMK A01 T02231006  RH  022%=      5-min Rain = 0
KSB1 241421Z 32016KT 22/M01 A2999 RMK A01 T02231007  RH  022%=      5-min Rain = 0
KSB1 241422Z 31014KT 22/M01 A2999 RMK A01 T02241008  RH  021%=      5-min Rain = 0
KSB1 241423Z 31012KT 22/M01 A2999 RMK A01 T02241006  RH  021%=      5-min Rain = 0
KSB1 241424Z 31017KT 23/M01 A2999 RMK A01 T02261008  RH  021%=      5-min Rain = 0
KSB1 241425Z 31014G19KT 23/M01 A2999 RMK A01 T02251008  RH  021%=      5-min Rain = 0
KSB1 241426Z 31013G18KT 22/M01 A2999 RMK A01 T02241008  RH  021%=      5-min Rain = 0
KSB1 241427Z 31014KT 23/M01 A2999 RMK A01 T02251008  RH  021%=      5-min Rain = 0
KSB1 241428Z 31016KT 23/M01 A2999 RMK A01 T02261010  RH  021%=      5-min Rain = 0
KSB1 241429Z 31015KT 23/M01 A2999 RMK A01 T02261010  RH  021%=      5-min Rain = 0
KSB1 241430Z 31016KT 23/M01 A2999 RMK A01 T02271011  RH  020%=      5-min Rain = 0
KSB1 241431Z 32017KT 23/M01 A2999 RMK A01 T02271012  RH  020%=      5-min Rain = 0
KSB1 241432Z 31016G21KT 23/M01 A2999 RMK A01 T02271013  RH  020%=      5-min Rain = 0
KSB1 241433Z 31017KT 23/M01 A2999 RMK A01 T02281013  RH  020%=      5-min Rain = 0
KSB1 241434Z 31015KT 23/M01 A2999 RMK A01 T02281013  RH  020%=      5-min Rain = 0
KSB1 241435Z 31017KT 23/M01 A2999 RMK A01 T02271012  RH  020%=      5-min Rain = 0
KSB1 241436Z 31017KT 23/M01 A2999 RMK A01 T02271011  RH  020%=      5-min Rain = 0
KSB1 241437Z 31016KT 23/M01 A2999 RMK A01 T02271012  RH  020%=      5-min Rain = 0
KSB1 241438Z 30017KT 23/M01 A2999 RMK A01 T02271013  RH  020%=      5-min Rain = 0
KSB1 241439Z 30013KT 23/M01 A2999 RMK A01 T02281012  RH  020%=      5-min Rain = 0
KSB1 241440Z 32014KT 23/M01 A2999 RMK A01 T02291011  RH  020%=      5-min Rain = 0
KSB1 241441Z 30016KT 23/M01 A2999 RMK A01 T02311011  RH  020%=      5-min Rain = 0
KSB1 241442Z 31015KT 23/M01 A2999 RMK A01 T02301012  RH  020%=      5-min Rain = 0
KSB1 241443Z 30015KT 23/M01 A2999 RMK A01 T02301012  RH  020%=      5-min Rain = 0
KSB1 241444Z 31016KT 23/M01 A2999 RMK A01 T02301013  RH  020%=      5-min Rain = 0
KSB1 241445Z 31016KT 23/M01 A2999 RMK A01 T02301012  RH  020%=      5-min Rain = 0
KSB1 241446Z 30015KT 23/M01 A2999 RMK A01 T02321013  RH  020%=      5-min Rain = 0
KSB1 241447Z 30016KT 23/M01 A2999 RMK A01 T02331014  RH  019%=      5-min Rain = 0
KSB1 241448Z 30014KT 23/M01 A2999 RMK A01 T02331014  RH  019%=      5-min Rain = 0
KSB1 241449Z 31012KT 23/M01 A2999 RMK A01 T02331012  RH  020%=      5-min Rain = 0
KSB1 241450Z 31014KT 23/M01 A2999 RMK A01 T02341013  RH  019%=      5-min Rain = 0
KSB1 241451Z 32015KT 23/M02 A2999 RMK A01 T02341015  RH  019%=      5-min Rain = 0
KSB1 241452Z 31015KT 23/M01 A2999 RMK A01 T02341014  RH  019%=      5-min Rain = 0
KSB1 241453Z 31015KT 23/M01 A2999 RMK A01 T02341014  RH  019%=      5-min Rain = 0
KSB1 241454Z 32013KT 24/M01 A2999 RMK A01 T02351014  RH  019%=      5-min Rain = 0
KSB1 241455Z 31015KT 24/M01 A2999 RMK A01 T02371014  RH  019%=      5-min Rain = 0
KSB1 241456Z 32015KT 24/M02 A2999 RMK A01 T02361015  RH  019%=      5-min Rain = 0
KSB1 241457Z 31013G18KT 24/M02 A2999 RMK A01 T02361015  RH  019%=      5-min Rain = 0
KSB1 241458Z 31014KT 24/M02 A2999 RMK A01 T02361015  RH  019%=      5-min Rain = 0
KSB1 241459Z 32016KT 24/M02 A2999 RMK A01 T02371017  RH  018%=      5-min Rain = 0
KSB1 241500Z 32017KT 24/M02 A2999 RMK A01 T02381016  RH  018%=      5-min Rain = 0
KSB1 241501Z 32016KT 24/M02 A2999 RMK A01 T02381018  RH  018%=      5-min Rain = 0
KSB1 241502Z 31015G20KT 24/M02 A2999 RMK A01 T02381020  RH  018%=      5-min Rain = 0
KSB1 241503Z 31017KT 24/M02 A2999 RMK A01 T02371021  RH  018%=      5-min Rain = 0
KSB1 241504Z 31015KT 24/M02 A30 RMK A01 T02371022  RH  018%=      5-min Rain = 0
KSB1 241505Z 30017KT 24/M02 A30 RMK A01 T02371022  RH  018%=      5-min Rain = 0
KSB1 241506Z 31014G19KT 24/M02 A30 RMK A01 T02381022  RH  018%=      5-min Rain = 0
KSB1 241507Z 31017KT 24/M02 A30 RMK A01 T02391023  RH  017%=      5-min Rain = 0
KSB1 241508Z 31014KT 24/M02 A30 RMK A01 T02391022  RH  018%=      5-min Rain = 0
KSB1 241509Z 30013G18KT 24/M02 A30 RMK A01 T02391020  RH  018%=      5-min Rain = 0
KSB1 241510Z 31010KT 24/M02 A30 RMK A01 T02391017  RH  018%=      5-min Rain = 0
KSB1 241511Z 30013KT 24/M02 A30 RMK A01 T02421020  RH  017%=      5-min Rain = 0
KSB1 241512Z 30013G19KT 24/M03 A30 RMK A01 T02421025  RH  017%=      5-min Rain = 0
KSB1 241513Z 30014KT 24/M03 A30 RMK A01 T02421025  RH  017%=      5-min Rain = 0
KSB1 241514Z 31014KT 24/M03 A30 RMK A01 T02421025  RH  017%=      5-min Rain = 0
KSB1 241515Z 31016KT 24/M03 A2999 RMK A01 T02421026  RH  017%=      5-min Rain = 0
KSB1 241516Z 31017KT 24/M03 A30 RMK A01 T02411027  RH  017%=      5-min Rain = 0
KSB1 241517Z 32014KT 24/M03 A30 RMK A01 T02411026  RH  017%=      5-min Rain = 0
KSB1 241518Z 32014KT 24/M03 A30 RMK A01 T02411025  RH  017%=      5-min Rain = 0
KSB1 241519Z 32013KT 24/M03 A30 RMK A01 T02431027  RH  017%=      5-min Rain = 0
KSB1 241520Z 31015KT 24/M03 A30 RMK A01 T02441028  RH  016%=      5-min Rain = 0
KSB1 241521Z 31015KT 24/M03 A30 RMK A01 T02441027  RH  016%=      5-min Rain = 0
KSB1 241522Z 31016KT 24/M03 A30 RMK A01 T02441027  RH  016%=      5-min Rain = 0
KSB1 241523Z 32016G21KT 24/M03 A30 RMK A01 T02431026  RH  017%=      5-min Rain = 0
KSB1 241524Z 32014KT 24/M03 A2999 RMK A01 T02431026  RH  017%=      5-min Rain = 0
KSB1 241525Z 33015KT 24/M03 A2999 RMK A01 T02441028  RH  016%=      5-min Rain = 0
KSB1 241526Z 31015KT 25/M03 A2999 RMK A01 T02461030  RH  016%=      5-min Rain = 0
KSB1 241527Z 31013KT 25/M03 A30 RMK A01 T02461029  RH  016%=      5-min Rain = 0
KSB1 241528Z 32013KT 25/M03 A2999 RMK A01 T02471027  RH  016%=      5-min Rain = 0
KSB1 241529Z 32015KT 25/M03 A2999 RMK A01 T02491028  RH  016%=      5-min Rain = 0
KSB1 241530Z 31013KT 25/M03 A2999 RMK A01 T02491030  RH  016%=      5-min Rain = 0
KSB1 241531Z 30012KT 25/M03 A2999 RMK A01 T02501028  RH  016%=      5-min Rain = 0
KSB1 241532Z 30010KT 25/M03 A2999 RMK A01 T02501027  RH  016%=      5-min Rain = 0
KSB1 241533Z 30012KT 25/M03 A2999 RMK A01 T02501028  RH  016%=      5-min Rain = 0
KSB1 241534Z 30011KT 25/M03 A2999 RMK A01 T02501028  RH  016%=      5-min Rain = 0
KSB1 241535Z 32011KT 25/M03 A2999 RMK A01 T02491028  RH  016%=      5-min Rain = 0
KSB1 241536Z 31015KT 25/M03 A2999 RMK A01 T02511027  RH  016%=      5-min Rain = 0
KSB1 241537Z 30010KT 25/M03 A2999 RMK A01 T02501028  RH  016%=      5-min Rain = 0
KSB1 241538Z 30011KT 25/M03 A2999 RMK A01 T02501026  RH  016%=      5-min Rain = 0
KSB1 241539Z 30014KT 25/M03 A2999 RMK A01 T02501028  RH  016%=      5-min Rain = 0
KSB1 241540Z 31011KT 25/M03 A2999 RMK A01 T02481028  RH  016%=      5-min Rain = 0
KSB1 241541Z 31012G17KT 25/M03 A2999 RMK A01 T02511025  RH  016%=      5-min Rain = 0
KSB1 241542Z 31014KT 25/M03 A2999 RMK A01 T02541026  RH  016%=      5-min Rain = 0
KSB1 241543Z 32015KT 25/M03 A2999 RMK A01 T02531026  RH  016%=      5-min Rain = 0
KSB1 241544Z 32017KT 25/M03 A2999 RMK A01 T02521026  RH  016%=      5-min Rain = 0
KSB1 241545Z 31014KT 25/M03 A2999 RMK A01 T02511026  RH  016%=      5-min Rain = 0
KSB1 241546Z 32012G20KT 25/M03 A2999 RMK A01 T02501025  RH  016%=      5-min Rain = 0
KSB1 241547Z 30018KT 25/M02 A2999 RMK A01 T02501024  RH  016%=      5-min Rain = 0
KSB1 241548Z 31018KT 25/M03 A2999 RMK A01 T02491026  RH  016%=      5-min Rain = 0
KSB1 241549Z 31015KT 25/M03 A2999 RMK A01 T02491027  RH  016%=      5-min Rain = 0
KSB1 241550Z 31017KT 25/M03 A2999 RMK A01 T02491029  RH  016%=      5-min Rain = 0
KSB1 241551Z 30017KT 25/M03 A2999 RMK A01 T02491030  RH  016%=      5-min Rain = 0
KSB1 241552Z 30014KT 25/M03 A2999 RMK A01 T02481032  RH  015%=      5-min Rain = 0
KSB1 241553Z 29016G21KT 25/M03 A2999 RMK A01 T02481031  RH  016%=      5-min Rain = 0
KSB1 241554Z 31015KT 25/M03 A2999 RMK A01 T02481031  RH  016%=      5-min Rain = 0
KSB1 241555Z 31017KT 25/M03 A2999 RMK A01 T02511031  RH  015%=      5-min Rain = 0
KSB1 241556Z 32015KT 25/M03 A2999 RMK A01 T02511033  RH  015%=      5-min Rain = 0
KSB1 241557Z 31015KT 25/M04 A2999 RMK A01 T02511035  RH  015%=      5-min Rain = 0
KSB1 241558Z 31013KT 25/M04 A2999 RMK A01 T02501035  RH  015%=      5-min Rain = 0
KSB1 241559Z 31013KT 25/M03 A2999 RMK A01 T02511032  RH  015%=      5-min Rain = 0
KSB1 241600Z 30014KT 25/M03 A2999 RMK A01 T02521032  RH  015%=      5-min Rain = 0
KSB1 241601Z 28015KT 25/M03 A2999 RMK A01 T02531033  RH  015%=      5-min Rain = 0
KSB1 241602Z 30012KT 25/M03 A2999 RMK A01 T02521034  RH  015%=      5-min Rain = 0
KSB1 241603Z 31011G16KT 25/M03 A2999 RMK A01 T02531031  RH  015%=      5-min Rain = 0
KSB1 241604Z 30014G20KT 26/M03 A2999 RMK A01 T02561034  RH  015%=      5-min Rain = 0
KSB1 241605Z 30012KT 26/M04 A2999 RMK A01 T02561038  RH  014%=      5-min Rain = 0
KSB1 241606Z 28015KT 25/M04 A2999 RMK A01 T02531037  RH  014%=      5-min Rain = 0
KSB1 241607Z 29012G17KT 25/M03 A2999 RMK A01 T02521034  RH  015%=      5-min Rain = 0
KSB1 241608Z 29011KT 25/M03 A2999 RMK A01 T02541031  RH  015%=      5-min Rain = 0
KSB1 241609Z 32013G19KT 26/M03 A2999 RMK A01 T02561031  RH  015%=      5-min Rain = 0
KSB1 241610Z 31014KT 26/M03 A2999 RMK A01 T02581033  RH  014%=      5-min Rain = 0
KSB1 241611Z 31017KT 26/M03 A2999 RMK A01 T02561030  RH  015%=      5-min Rain = 0
KSB1 241612Z 31015G22KT 26/M03 A2999 RMK A01 T02551029  RH  015%=      5-min Rain = 0
KSB1 241613Z 31017KT 25/M03 A2999 RMK A01 T02541025  RH  016%=      5-min Rain = 0
KSB1 241614Z 31015KT 25/M02 A2999 RMK A01 T02531017  RH  017%=      5-min Rain = 0
KSB1 241615Z 31013KT 25/M02 A2999 RMK A01 T02531024  RH  016%=      5-min Rain = 0
KSB1 241616Z 32018KT 26/M03 A2999 RMK A01 T02551026  RH  015%=      5-min Rain = 0
KSB1 241617Z 31015KT 25/M03 A2999 RMK A01 T02541025  RH  016%=      5-min Rain = 0
KSB1 241618Z 30012KT 25/M03 A2999 RMK A01 T02531025  RH  016%=      5-min Rain = 0
KSB1 241619Z 30014KT 26/M03 A2999 RMK A01 T02551026  RH  015%=      5-min Rain = 0
KSB1 241620Z 32015KT 26/M02 A2999 RMK A01 T02571018  RH  016%=      5-min Rain = 0
KSB1 241621Z 32015G20KT 26/M02 A2999 RMK A01 T02601015  RH  016%=      5-min Rain = 0
KSB1 241622Z 32016KT 26/M02 A2999 RMK A01 T02611017  RH  016%=      5-min Rain = 0
KSB1 241623Z 31016G21KT 26/M02 A2999 RMK A01 T02621021  RH  015%=      5-min Rain = 0
KSB1 241624Z 31017G22KT 26/M03 A2999 RMK A01 T02601025  RH  015%=      5-min Rain = 0
KSB1 241625Z 32016G21KT 26/M02 A2999 RMK A01 T02581020  RH  016%=      5-min Rain = 0
KSB1 241626Z 31014G19KT 26/M01 A2999 RMK A01 T02601014  RH  016%=      5-min Rain = 0
KSB1 241627Z 29015KT 26/M02 A2999 RMK A01 T02621016  RH  016%=      5-min Rain = 0
KSB1 241628Z 29016KT 26/M02 A2999 RMK A01 T02601020  RH  016%=      5-min Rain = 0
KSB1 241629Z 29013KT 26/M02 A2999 RMK A01 T02571021  RH  016%=      5-min Rain = 0
KSB1 241630Z 28011KT 26/M02 A2999 RMK A01 T02581021  RH  016%=      5-min Rain = 0
KSB1 241631Z 28012KT 26/M02 A2999 RMK A01 T02581017  RH  016%=      5-min Rain = 0
KSB1 241632Z 32012G18KT 26/M02 A2999 RMK A01 T02601015  RH  016%=      5-min Rain = 0
KSB1 241633Z 32018KT 26/M01 A2998 RMK A01 T02611010  RH  017%=      5-min Rain = 0
KSB1 241634Z 32018KT 26/M01 A2998 RMK A01 T02591011  RH  017%=      5-min Rain = 0
KSB1 241635Z 31014G19KT 26/M02 A2999 RMK A01 T02581017  RH  016%=      5-min Rain = 0
KSB1 241636Z 29011KT 26/M02 A2999 RMK A01 T02581017  RH  016%=      5-min Rain = 0
KSB1 241637Z 30012KT 26/M02 A2999 RMK A01 T02621018  RH  016%=      5-min Rain = 0
KSB1 241638Z 31011KT 26/M01 A2999 RMK A01 T02631012  RH  016%=      5-min Rain = 0
KSB1 241639Z 31012G18KT 26/M01 A2999 RMK A01 T02631006  RH  017%=      5-min Rain = 0
KSB1 241640Z 30014G20KT 27/M01 A2999 RMK A01 T02651009  RH  017%=      5-min Rain = 0
KSB1 241641Z 30014G19KT 27/M01 A2999 RMK A01 T02651012  RH  016%=      5-min Rain = 0
KSB1 241642Z 31014KT 26/M02 A2999 RMK A01 T02641015  RH  016%=      5-min Rain = 0
KSB1 241643Z 29011KT 26/M02 A2999 RMK A01 T02621018  RH  016%=      5-min Rain = 0
KSB1 241644Z 29010G17KT 26/M02 A2999 RMK A01 T02631020  RH  015%=      5-min Rain = 0
KSB1 241645Z 31014KT 26/M01 A2999 RMK A01 T02641011  RH  016%=      5-min Rain = 0
KSB1 241646Z 29013KT 26/M01 A2999 RMK A01 T02631009  RH  017%=      5-min Rain = 0
KSB1 241647Z 27013KT 27/M02 A2999 RMK A01 T02651018  RH  015%=      5-min Rain = 0
KSB1 241648Z 29010KT 27/M02 A2999 RMK A01 T02651019  RH  015%=      5-min Rain = 0
KSB1 241649Z 28011KT 27/M02 A2999 RMK A01 T02681019  RH  015%=      5-min Rain = 0
KSB1 241650Z 28012KT 27/M02 A2999 RMK A01 T02651020  RH  015%=      5-min Rain = 0
KSB1 241651Z 30011KT 26/M02 A2999 RMK A01 T02631018  RH  016%=      5-min Rain = 0
KSB1 241652Z 29012KT 26/M02 A2998 RMK A01 T02631017  RH  016%=      5-min Rain = 0
KSB1 241653Z 31013KT 26/M01 A2999 RMK A01 T02641014  RH  016%=      5-min Rain = 0
KSB1 241654Z 31015KT 27/M01 A2998 RMK A01 T02661014  RH  016%=      5-min Rain = 0
KSB1 241655Z 28011KT 26/M01 A2998 RMK A01 T02641012  RH  016%=      5-min Rain = 0
KSB1 241656Z 28012KT 26/M01 A2998 RMK A01 T02631012  RH  016%=      5-min Rain = 0
KSB1 241657Z 29013G18KT 26/M01 A2998 RMK A01 T02611012  RH  017%=      5-min Rain = 0
KSB1 241658Z 28014KT 27/M01 A2999 RMK A01 T02651014  RH  016%=      5-min Rain = 0
KSB1 241659Z 28015KT 27/M02 A2999 RMK A01 T02671017  RH  015%=      5-min Rain = 0
KSB1 241700Z 29012KT 27/M02 A2999 RMK A01 T02651021  RH  015%=      5-min Rain = 0
KSB1 241701Z 31013KT 26/M02 A2999 RMK A01 T02641022  RH  015%=      5-min Rain = 0
KSB1 241702Z 31010KT 26/M02 A2999 RMK A01 T02641022  RH  015%=      5-min Rain = 0
KSB1 241703Z 31012KT 26/M02 A2998 RMK A01 T02641022  RH  015%=      5-min Rain = 0
KSB1 241704Z 31008KT 26/M03 A2998 RMK A01 T02611025  RH  015%=      5-min Rain = 0
KSB1 241705Z 31011G18KT 26/M02 A2998 RMK A01 T02611022  RH  015%=      5-min Rain = 0
KSB1 241706Z 31015G21KT 26/M02 A2998 RMK A01 T02631020  RH  015%=      5-min Rain = 0
KSB1 241707Z 30015KT 26/M02 A2998 RMK A01 T02631019  RH  016%=      5-min Rain = 0
KSB1 241708Z 30014KT 26/M02 A2998 RMK A01 T02621019  RH  016%=      5-min Rain = 0
KSB1 241709Z 30010KT 26/M02 A2998 RMK A01 T02611016  RH  016%=      5-min Rain = 0
KSB1 241710Z 30011KT 26/M01 A2998 RMK A01 T02621013  RH  016%=      5-min Rain = 0
KSB1 241711Z 28012KT 27/M01 A2999 RMK A01 T02651012  RH  016%=      5-min Rain = 0
KSB1 241712Z 29012KT 27/M01 A2998 RMK A01 T02671013  RH  016%=      5-min Rain = 0
KSB1 241713Z 28012KT 27/M01 A2998 RMK A01 T02651013  RH  016%=      5-min Rain = 0
KSB1 241714Z 28011KT 26/M02 A2998 RMK A01 T02621015  RH  016%=      5-min Rain = 0
KSB1 241715Z 28012KT 26/M01 A2998 RMK A01 T02601014  RH  016%=      5-min Rain = 0
KSB1 241716Z 29011KT 26/M01 A2998 RMK A01 T02621012  RH  016%=      5-min Rain = 0
KSB1 241717Z 32010KT 27/M01 A2998 RMK A01 T02661011  RH  016%=      5-min Rain = 0
KSB1 241718Z 31014KT 27/M01 A2998 RMK A01 T02701011  RH  016%=      5-min Rain = 0
KSB1 241719Z 32015KT 27/M01 A2998 RMK A01 T02701014  RH  015%=      5-min Rain = 0
KSB1 241720Z 31015KT 27/M01 A2998 RMK A01 T02691014  RH  016%=      5-min Rain = 0
KSB1 241721Z 29014G19KT 27/M01 A2998 RMK A01 T02691014  RH  016%=      5-min Rain = 0
KSB1 241722Z 31012G17KT 27/M02 A2998 RMK A01 T02661015  RH  016%=      5-min Rain = 0
KSB1 241723Z 33013KT 27/M02 A2998 RMK A01 T02651015  RH  016%=      5-min Rain = 0
KSB1 241724Z 33010KT 27/M02 A2998 RMK A01 T02651016  RH  016%=      5-min Rain = 0
KSB1 241725Z 31009KT 26/M02 A2998 RMK A01 T02631017  RH  016%=      5-min Rain = 0
KSB1 241726Z 31006KT 26/M02 A2998 RMK A01 T02621017  RH  016%=      5-min Rain = 0
KSB1 241727Z 33009KT 26/M02 A2998 RMK A01 T02631015  RH  016%=      5-min Rain = 0
KSB1 241728Z 34010KT 27/M02 A2998 RMK A01 T02651016  RH  016%=      5-min Rain = 0
KSB1 241729Z 33011KT 27/M02 A2998 RMK A01 T02651015  RH  016%=      5-min Rain = 0
KSB1 241730Z 32009KT 26/M02 A2998 RMK A01 T02641015  RH  016%=      5-min Rain = 0
KSB1 241731Z 28008KT 26/M02 A2998 RMK A01 T02631015  RH  016%=      5-min Rain = 0
KSB1 241732Z 25007KT 27/M01 A2998 RMK A01 T02651013  RH  016%=      5-min Rain = 0
KSB1 241733Z 30006G11KT 27/M01 A2998 RMK A01 T02681013  RH  016%=      5-min Rain = 0
KSB1 241734Z 31010KT 27/M01 A2998 RMK A01 T02721013  RH  015%=      5-min Rain = 0
KSB1 241735Z 31013KT 28/M01 A2998 RMK A01 T02791013  RH  015%=      5-min Rain = 0
KSB1 241736Z 32014KT 28/M02 A2998 RMK A01 T02781018  RH  014%=      5-min Rain = 0
KSB1 241737Z 32012KT 28/M02 A2998 RMK A01 T02761017  RH  015%=      5-min Rain = 0
KSB1 241738Z 31012KT 28/M02 A2998 RMK A01 T02761019  RH  014%=      5-min Rain = 0
KSB1 241739Z 30012KT 27/M02 A2998 RMK A01 T02731019  RH  015%=      5-min Rain = 0
KSB1 241740Z 29012KT 27/M02 A2998 RMK A01 T02711018  RH  015%=      5-min Rain = 0
KSB1 241741Z 30010KT 27/M02 A2998 RMK A01 T02701018  RH  015%=      5-min Rain = 0
KSB1 241742Z 28005KT 27/M02 A2998 RMK A01 T02661019  RH  015%=      5-min Rain = 0
KSB1 241743Z 32007KT 26/M02 A2998 RMK A01 T02631018  RH  016%=      5-min Rain = 0
KSB1 241744Z 32006G11KT 27/M02 A2998 RMK A01 T02651015  RH  016%=      5-min Rain = 0
KSB1 241745Z 33006KT 27/M01 A2998 RMK A01 T02651013  RH  016%=      5-min Rain = 0
KSB1 241746Z 31011KT 27/M01 A2998 RMK A01 T02681010  RH  016%=      5-min Rain = 0
KSB1 241747Z 32012KT 27/M01 A2998 RMK A01 T02701011  RH  016%=      5-min Rain = 0
KSB1 241748Z 32008KT 27/M01 A2998 RMK A01 T02691012  RH  016%=      5-min Rain = 0
KSB1 241749Z 31007KT 27/M01 A2998 RMK A01 T02691010  RH  016%=      5-min Rain = 0
KSB1 241750Z 32007KT 27/M01 A2998 RMK A01 T02701009  RH  016%=      5-min Rain = 0
KSB1 241751Z 33005KT 27/M01 A2998 RMK A01 T02741006  RH  016%=      5-min Rain = 0
KSB1 241752Z 33010G15KT 28/M00 A2998 RMK A01 T02791004  RH  016%=      5-min Rain = 0
KSB1 241753Z 30010KT 28/M01 A2998 RMK A01 T02811008  RH  015%=      5-min Rain = 0
KSB1 241754Z 28010KT 28/M01 A2998 RMK A01 T02801012  RH  015%=      5-min Rain = 0
KSB1 241755Z 26010KT 27/M02 A2998 RMK A01 T02741021  RH  014%=      5-min Rain = 0
KSB1 241756Z 26010KT 27/M02 A2998 RMK A01 T02711019  RH  015%=      5-min Rain = 0
KSB1 241757Z 26006KT 27/M02 A2998 RMK A01 T02701017  RH  015%=      5-min Rain = 0
KSB1 241758Z 25008KT 27/M02 A2998 RMK A01 T02731016  RH  015%=      5-min Rain = 0
KSB1 241759Z 26011KT 27/M02 A2998 RMK A01 T02731018  RH  015%=      5-min Rain = 0
KSB1 241800Z 25009G14KT 27/M02 A2998 RMK A01 T02741017  RH  015%=      5-min Rain = 0
KSB1 241801Z 27009KT 28/M02 A2998 RMK A01 T02751016  RH  015%=      5-min Rain = 0
KSB1 241802Z 28008KT 28/M02 A2998 RMK A01 T02751016  RH  015%=      5-min Rain = 0
KSB1 241803Z 29010KT 28/M02 A2997 RMK A01 T02751015  RH  015%=      5-min Rain = 0
KSB1 241804Z 31010KT 28/M02 A2997 RMK A01 T02751016  RH  015%=      5-min Rain = 0
KSB1 241805Z 29012G18KT 28/M02 A2997 RMK A01 T02781016  RH  015%=      5-min Rain = 0
KSB1 241806Z 28014KT 28/M02 A2997 RMK A01 T02821019  RH  014%=      5-min Rain = 0
KSB1 241807Z 28013KT 28/M02 A2997 RMK A01 T02811020  RH  014%=      5-min Rain = 0
KSB1 241808Z 29015KT 28/M02 A2997 RMK A01 T02811020  RH  014%=      5-min Rain = 0
KSB1 241809Z 28014KT 28/M02 A2997 RMK A01 T02771024  RH  014%=      5-min Rain = 0
KSB1 241810Z 27013KT 27/M03 A2997 RMK A01 T02741025  RH  014%=      5-min Rain = 0
KSB1 241811Z 29010KT 28/M02 A2997 RMK A01 T02751023  RH  014%=      5-min Rain = 0
KSB1 241812Z 26011KT 27/M03 A2997 RMK A01 T02741025  RH  014%=      5-min Rain = 0
KSB1 241813Z 25007KT 27/M02 A2997 RMK A01 T02711023  RH  014%=      5-min Rain = 0
KSB1 241814Z 30010G18KT 27/M02 A2997 RMK A01 T02691023  RH  015%=      5-min Rain = 0
KSB1 241815Z 28015KT 27/M03 A2997 RMK A01 T02711029  RH  014%=      5-min Rain = 0
KSB1 241816Z 29011KT 27/M03 A2997 RMK A01 T02731029  RH  014%=      5-min Rain = 0
KSB1 241817Z 29008KT 28/M03 A2997 RMK A01 T02771027  RH  013%=      5-min Rain = 0
KSB1 241818Z 27011KT 28/M03 A2997 RMK A01 T02801025  RH  013%=      5-min Rain = 0
KSB1 241819Z 28007KT 28/M03 A2997 RMK A01 T02791026  RH  013%=      5-min Rain = 0
KSB1 241820Z 28005KT 27/M03 A2997 RMK A01 T02731026  RH  014%=      5-min Rain = 0
KSB1 241821Z 29010KT 27/M02 A2997 RMK A01 T02731024  RH  014%=      5-min Rain = 0
KSB1 241822Z 29007KT 28/M03 A2997 RMK A01 T02771025  RH  014%=      5-min Rain = 0
KSB1 241823Z 28014KT 28/M03 A2996 RMK A01 T02801026  RH  013%=      5-min Rain = 0
KSB1 241824Z 27011KT 28/M03 A2997 RMK A01 T02791029  RH  013%=      5-min Rain = 0
KSB1 241825Z 28008KT 28/M03 A2996 RMK A01 T02771029  RH  013%=      5-min Rain = 0
KSB1 241826Z 26006KT 27/M03 A2996 RMK A01 T02741029  RH  014%=      5-min Rain = 0
KSB1 241827Z 27010KT 27/M03 A2996 RMK A01 T02741029  RH  014%=      5-min Rain = 0
KSB1 241828Z 26014G20KT 28/M03 A2996 RMK A01 T02781028  RH  013%=      5-min Rain = 0
KSB1 241829Z 27017KT 28/M04 A2996 RMK A01 T02811038  RH  012%=      5-min Rain = 0
KSB1 241830Z 26015KT 28/M04 A2996 RMK A01 T02791039  RH  012%=      5-min Rain = 0
KSB1 241831Z 26015G20KT 28/M04 A2996 RMK A01 T02791038  RH  012%=      5-min Rain = 0
KSB1 241832Z 26017KT 28/M04 A2996 RMK A01 T02801040  RH  012%=      5-min Rain = 0
KSB1 241833Z 26015KT 28/M05 A2996 RMK A01 T02771049  RH  011%=      5-min Rain = 0
KSB1 241834Z 26012KT 27/M05 A2996 RMK A01 T02741051  RH  011%=      5-min Rain = 0
KSB1 241835Z 26010KT 27/M04 A2996 RMK A01 T02731043  RH  012%=      5-min Rain = 0
KSB1 241836Z 25013KT 27/M04 A2996 RMK A01 T02731039  RH  013%=      5-min Rain = 0
KSB1 241837Z 24013KT 28/M04 A2996 RMK A01 T02771042  RH  012%=      5-min Rain = 0
KSB1 241838Z 24008KT 28/M04 A2996 RMK A01 T02791039  RH  012%=      5-min Rain = 0
KSB1 241839Z 24010KT 28/M04 A2996 RMK A01 T02801037  RH  012%=      5-min Rain = 0
KSB1 241840Z 26009KT 28/M03 A2996 RMK A01 T02801031  RH  013%=      5-min Rain = 0
KSB1 241841Z 28005KT 28/M03 A2996 RMK A01 T02821028  RH  013%=      5-min Rain = 0
KSB1 241842Z 24007KT 28/M03 A2996 RMK A01 T02831026  RH  013%=      5-min Rain = 0
KSB1 241843Z 27013KT 28/M03 A2996 RMK A01 T02821025  RH  013%=      5-min Rain = 0
KSB1 241844Z 27012KT 28/M03 A2996 RMK A01 T02801034  RH  013%=      5-min Rain = 0
KSB1 241845Z 27013G20KT 28/M04 A2996 RMK A01 T02781037  RH  012%=      5-min Rain = 0
KSB1 241846Z 27016KT 28/M03 A2996 RMK A01 T02811034  RH  013%=      5-min Rain = 0
KSB1 241847Z 27014KT 29/M03 A2996 RMK A01 T02851030  RH  013%=      5-min Rain = 0
KSB1 241848Z 26015KT 28/M03 A2996 RMK A01 T02831032  RH  013%=      5-min Rain = 0
KSB1 241849Z 27013KT 28/M04 A2996 RMK A01 T02791039  RH  012%=      5-min Rain = 0
KSB1 241850Z 26011KT 28/M04 A2996 RMK A01 T02781042  RH  012%=      5-min Rain = 0
KSB1 241851Z 27007KT 28/M04 A2996 RMK A01 T02771037  RH  013%=      5-min Rain = 0
KSB1 241852Z 26008KT 27/M03 A2996 RMK A01 T02741032  RH  013%=      5-min Rain = 0
KSB1 241853Z 28007KT 27/M03 A2996 RMK A01 T02741030  RH  013%=      5-min Rain = 0
KSB1 241854Z 27003KT 28/M03 A2996 RMK A01 T02751031  RH  013%=      5-min Rain = 0
KSB1 241855Z 26005KT 27/M03 A2996 RMK A01 T02731028  RH  014%=      5-min Rain = 0
KSB1 241856Z 28009KT 27/M03 A2996 RMK A01 T02721025  RH  014%=      5-min Rain = 0
KSB1 241857Z 31008KT 27/M03 A2996 RMK A01 T02741025  RH  014%=      5-min Rain = 0
KSB1 241858Z 32011G16KT 28/M03 A2995 RMK A01 T02781026  RH  014%=      5-min Rain = 0
KSB1 241859Z 32011KT 28/M03 A2995 RMK A01 T02801028  RH  013%=      5-min Rain = 0
KSB1 241900Z 31013KT 28/M03 A2995 RMK A01 T02821026  RH  013%=      5-min Rain = 0
KSB1 241901Z 27012KT 29/M03 A2996 RMK A01 T02851034  RH  012%=      5-min Rain = 0
KSB1 241902Z 28008G13KT 28/M04 A2995 RMK A01 T02821042  RH  012%=      5-min Rain = 0
KSB1 241903Z 27013KT 28/M04 A2995 RMK A01 T02831036  RH  012%=      5-min Rain = 0
KSB1 241904Z 28011KT 28/M03 A2995 RMK A01 T02841033  RH  012%=      5-min Rain = 0
KSB1 241905Z 26011KT 28/M04 A2995 RMK A01 T02831035  RH  012%=      5-min Rain = 0
KSB1 241906Z 24012KT 28/M04 A2995 RMK A01 T02791038  RH  012%=      5-min Rain = 0
KSB1 241907Z 26009KT 28/M04 A2995 RMK A01 T02761036  RH  013%=      5-min Rain = 0
KSB1 241908Z 26011KT 28/M03 A2995 RMK A01 T02771029  RH  013%=      5-min Rain = 0
KSB1 241909Z 27009KT 28/M03 A2995 RMK A01 T02791028  RH  013%=      5-min Rain = 0
KSB1 241910Z 25008G14KT 28/M03 A2995 RMK A01 T02751029  RH  013%=      5-min Rain = 0
KSB1 241911Z 23014KT 28/M03 A2995 RMK A01 T02771031  RH  013%=      5-min Rain = 0
KSB1 241912Z 23012KT 28/M03 A2995 RMK A01 T02791031  RH  013%=      5-min Rain = 0
KSB1 241913Z 25015G20KT 28/M03 A2994 RMK A01 T02801034  RH  013%=      5-min Rain = 0
KSB1 241914Z 26015G20KT 29/M04 A2994 RMK A01 T02851035  RH  012%=      5-min Rain = 0
KSB1 241915Z 27017KT 29/M03 A2994 RMK A01 T02891034  RH  012%=      5-min Rain = 0
KSB1 241916Z 27015KT 29/M04 A2995 RMK A01 T02871036  RH  012%=      5-min Rain = 0
KSB1 241917Z 26012KT 28/M04 A2995 RMK A01 T02811043  RH  012%=      5-min Rain = 0
KSB1 241918Z 27012KT 28/M05 A2995 RMK A01 T02781045  RH  012%=      5-min Rain = 0
KSB1 241919Z 25012KT 28/M05 A2994 RMK A01 T02821052  RH  011%=      5-min Rain = 0
KSB1 241920Z 27013KT 28/M06 A2995 RMK A01 T02801057  RH  011%=      5-min Rain = 0
KSB1 241921Z 29013KT 28/M06 A2994 RMK A01 T02811059  RH  010%=      5-min Rain = 0
KSB1 241922Z 30013KT 28/M06 A2994 RMK A01 T02821064  RH  010%=      5-min Rain = 0
KSB1 241923Z 29010KT 28/M06 A2994 RMK A01 T02821061  RH  010%=      5-min Rain = 0
KSB1 241924Z 27012KT 28/M05 A2994 RMK A01 T02831048  RH  011%=      5-min Rain = 0
KSB1 241925Z 28011KT 28/M06 A2994 RMK A01 T02831057  RH  010%=      5-min Rain = 0
KSB1 241926Z 29011G21KT 28/M05 A2994 RMK A01 T02821054  RH  011%=      5-min Rain = 0
KSB1 241927Z 26013KT 28/M05 A2994 RMK A01 T02831046  RH  011%=      5-min Rain = 0
KSB1 241928Z 27016G21KT 29/M04 A2994 RMK A01 T02861038  RH  012%=      5-min Rain = 0
KSB1 241929Z 29011KT 29/M04 A2994 RMK A01 T02861035  RH  012%=      5-min Rain = 0
KSB1 241930Z 26011G16KT 28/M04 A2994 RMK A01 T02831039  RH  012%=      5-min Rain = 0
KSB1 241931Z 23009KT 28/M04 A2994 RMK A01 T02821035  RH  012%=      5-min Rain = 0
KSB1 241932Z 26015KT 28/M03 A2994 RMK A01 T02821032  RH  013%=      5-min Rain = 0
KSB1 241933Z 27015KT 28/M03 A2994 RMK A01 T02841032  RH  012%=      5-min Rain = 0
KSB1 241934Z 28014KT 29/M03 A2994 RMK A01 T02871034  RH  012%=      5-min Rain = 0
KSB1 241935Z 28010KT 28/M04 A2994 RMK A01 T02841035  RH  012%=      5-min Rain = 0
KSB1 241936Z 27013KT 28/M04 A2994 RMK A01 T02821035  RH  012%=      5-min Rain = 0
KSB1 241937Z 26010G15KT 28/M03 A2994 RMK A01 T02821034  RH  012%=      5-min Rain = 0
KSB1 241938Z 26012G17KT 28/M04 A2994 RMK A01 T02811039  RH  012%=      5-min Rain = 0
KSB1 241939Z 26013KT 28/M03 A2993 RMK A01 T02821031  RH  013%=      5-min Rain = 0
KSB1 241940Z 25015KT 28/M03 A2993 RMK A01 T02821026  RH  013%=      5-min Rain = 0
KSB1 241941Z 25016KT 28/M03 A2993 RMK A01 T02821026  RH  013%=      5-min Rain = 0
KSB1 241942Z 25013KT 28/M03 A2993 RMK A01 T02821028  RH  013%=      5-min Rain = 0
KSB1 241943Z 27008KT 28/M03 A2993 RMK A01 T02821028  RH  013%=      5-min Rain = 0
KSB1 241944Z 28007KT 28/M03 A2993 RMK A01 T02831028  RH  013%=      5-min Rain = 0
KSB1 241945Z 26010G15KT 28/M03 A2993 RMK A01 T02811028  RH  013%=      5-min Rain = 0
KSB1 241946Z 28011KT 28/M03 A2993 RMK A01 T02811032  RH  013%=      5-min Rain = 0
KSB1 241947Z 28009KT 28/M03 A2993 RMK A01 T02821031  RH  013%=      5-min Rain = 0
KSB1 241948Z 28010KT 29/M03 A2993 RMK A01 T02881031  RH  012%=      5-min Rain = 0
KSB1 241949Z 27008KT 29/M04 A2993 RMK A01 T02871041  RH  011%=      5-min Rain = 0
KSB1 241950Z 25006KT 29/M04 A2993 RMK A01 T02861038  RH  012%=      5-min Rain = 0
KSB1 241951Z 22004KT 29/M04 A2993 RMK A01 T02851038  RH  012%=      5-min Rain = 0
KSB1 241952Z 23004KT 28/M04 A2992 RMK A01 T02841039  RH  012%=      5-min Rain = 0
KSB1 241953Z 25003KT 29/M03 A2992 RMK A01 T02871033  RH  012%=      5-min Rain = 0
KSB1 241954Z 28010KT 29/M03 A2992 RMK A01 T02921030  RH  012%=      5-min Rain = 0
KSB1 241955Z 30013KT 29/M03 A2992 RMK A01 T02931029  RH  012%=      5-min Rain = 0
KSB1 241956Z 30013G20KT 29/M03 A2992 RMK A01 T02911029  RH  012%=      5-min Rain = 0
KSB1 241957Z 29012G22KT 29/M03 A2992 RMK A01 T02911028  RH  012%=      5-min Rain = 0
KSB1 241958Z 27008KT 29/M03 A2992 RMK A01 T02901029  RH  012%=      5-min Rain = 0
KSB1 241959Z 31008G14KT 29/M03 A2992 RMK A01 T02861029  RH  013%=      5-min Rain = 0
KSB1 242000Z 30013G18KT 29/M03 A2992 RMK A01 T02881026  RH  013%=      5-min Rain = 0
KSB1 242001Z 32008KT 29/M03 A2992 RMK A01 T02881027  RH  013%=      5-min Rain = 0
KSB1 242002Z 33010KT 29/M03 A2992 RMK A01 T02861028  RH  013%=      5-min Rain = 0
KSB1 242003Z 32014G19KT 29/M03 A2992 RMK A01 T02861026  RH  013%=      5-min Rain = 0
KSB1 242004Z 31014KT 29/M03 A2992 RMK A01 T02891027  RH  013%=      5-min Rain = 0
KSB1 242005Z 28015KT 29/M03 A2992 RMK A01 T02871027  RH  013%=      5-min Rain = 0
KSB1 242006Z 30013G18KT 29/M03 A2991 RMK A01 T02861026  RH  013%=      5-min Rain = 0
KSB1 242007Z 31015G21KT 29/M02 A2991 RMK A01 T02901023  RH  013%=      5-min Rain = 0
KSB1 242008Z 30020KT 30/M02 A2991 RMK A01 T02961021  RH  013%=      5-min Rain = 0
KSB1 242009Z 31014KT 29/M02 A2992 RMK A01 T02901024  RH  013%=      5-min Rain = 0
KSB1 242010Z 31014KT 29/M02 A2992 RMK A01 T02871022  RH  013%=      5-min Rain = 0
KSB1 242011Z 30010KT 29/M02 A2992 RMK A01 T02871020  RH  013%=      5-min Rain = 0
KSB1 242012Z 30012G18KT 28/M02 A2992 RMK A01 T02841020  RH  014%=      5-min Rain = 0
KSB1 242013Z 29013G18KT 29/M02 A2992 RMK A01 T02861017  RH  014%=      5-min Rain = 0
KSB1 242014Z 31012KT 29/M02 A2992 RMK A01 T02881016  RH  014%=      5-min Rain = 0
KSB1 242015Z 31013KT 29/M02 A2991 RMK A01 T02911016  RH  014%=      5-min Rain = 0
KSB1 242016Z 32010KT 29/M02 A2991 RMK A01 T02921017  RH  013%=      5-min Rain = 0
KSB1 242017Z 33009KT 29/M02 A2991 RMK A01 T02931016  RH  013%=      5-min Rain = 0
KSB1 242018Z 31011KT 30/M02 A2991 RMK A01 T02981015  RH  013%=      5-min Rain = 0
KSB1 242019Z 29012KT 30/M02 A2992 RMK A01 T03001016  RH  013%=      5-min Rain = 0
KSB1 242020Z 28012KT 30/M02 A2992 RMK A01 T02971021  RH  013%=      5-min Rain = 0
KSB1 242021Z 29012KT 29/M02 A2992 RMK A01 T02901023  RH  013%=      5-min Rain = 0
KSB1 242022Z 29011KT 29/M02 A2992 RMK A01 T02851023  RH  013%=      5-min Rain = 0
KSB1 242023Z 28011KT 29/M02 A2991 RMK A01 T02851023  RH  013%=      5-min Rain = 0
KSB1 242024Z 31008KT 29/M02 A2991 RMK A01 T02861024  RH  013%=      5-min Rain = 0
KSB1 242025Z 28012KT 29/M03 A2991 RMK A01 T02891025  RH  013%=      5-min Rain = 0
KSB1 242026Z 28009KT 29/M03 A2991 RMK A01 T02871033  RH  012%=      5-min Rain = 0
KSB1 242027Z 26006KT 28/M03 A2991 RMK A01 T02831031  RH  013%=      5-min Rain = 0
KSB1 242028Z 26009G14KT 28/M03 A2991 RMK A01 T02831031  RH  013%=      5-min Rain = 0
KSB1 242029Z 25014KT 29/M04 A2991 RMK A01 T02871037  RH  012%=      5-min Rain = 0
KSB1 242030Z 24013KT 29/M04 A2991 RMK A01 T02891040  RH  011%=      5-min Rain = 0
KSB1 242031Z 25012G17KT 29/M04 A2991 RMK A01 T02891043  RH  011%=      5-min Rain = 0
KSB1 242032Z 24011KT 29/M04 A2991 RMK A01 T02881043  RH  011%=      5-min Rain = 0
KSB1 242033Z 25014KT 29/M04 A2991 RMK A01 T02931043  RH  011%=      5-min Rain = 0
KSB1 242034Z 24008KT 29/M05 A2991 RMK A01 T02931049  RH  010%=      5-min Rain = 0
KSB1 242035Z 24009G14KT 29/M05 A2991 RMK A01 T02901050  RH  011%=      5-min Rain = 0
KSB1 242036Z 24015G20KT 29/M04 A2991 RMK A01 T02891044  RH  011%=      5-min Rain = 0
KSB1 242037Z 25015KT 29/M04 A2991 RMK A01 T02901040  RH  011%=      5-min Rain = 0
KSB1 242038Z 24015KT 29/M04 A2991 RMK A01 T02911040  RH  011%=      5-min Rain = 0
KSB1 242039Z 24013KT 29/M04 A2991 RMK A01 T02931040  RH  011%=      5-min Rain = 0
KSB1 242040Z 24011G18KT 30/M04 A2991 RMK A01 T02951039  RH  011%=      5-min Rain = 0
KSB1 242041Z 25012KT 30/M04 A2991 RMK A01 T02951040  RH  011%=      5-min Rain = 0
KSB1 242042Z 24012KT 29/M04 A2991 RMK A01 T02931040  RH  011%=      5-min Rain = 0
KSB1 242043Z 25013KT 29/M04 A299 RMK A01 T02921039  RH  011%=      5-min Rain = 0
KSB1 242044Z 24013KT 29/M04 A299 RMK A01 T02911036  RH  012%=      5-min Rain = 0
KSB1 242045Z 24014KT 30/M03 A299 RMK A01 T02951032  RH  012%=      5-min Rain = 0
KSB1 242046Z 23017KT 30/M03 A299 RMK A01 T02991030  RH  012%=      5-min Rain = 0
KSB1 242047Z 23016KT 30/M03 A299 RMK A01 T02991033  RH  011%=      5-min Rain = 0
KSB1 242048Z 28018G24KT 30/M03 A299 RMK A01 T02961034  RH  011%=      5-min Rain = 0
KSB1 242049Z 28016KT 30/M04 A2991 RMK A01 T02971035  RH  011%=      5-min Rain = 0
KSB1 242050Z 27010G15KT 30/M04 A2991 RMK A01 T02961036  RH  011%=      5-min Rain = 0
KSB1 242051Z 28019KT 29/M03 A2991 RMK A01 T02931034  RH  012%=      5-min Rain = 0
KSB1 242052Z 29015KT 29/M03 A299 RMK A01 T02921034  RH  012%=      5-min Rain = 0
KSB1 242053Z 28013KT 29/M03 A299 RMK A01 T02911034  RH  012%=      5-min Rain = 0
KSB1 242054Z 25012KT 29/M03 A299 RMK A01 T02901033  RH  012%=      5-min Rain = 0
KSB1 242055Z 26012G18KT 29/M03 A299 RMK A01 T02891033  RH  012%=      5-min Rain = 0
KSB1 242056Z 30013G18KT 29/M03 A299 RMK A01 T02901032  RH  012%=      5-min Rain = 0
KSB1 242057Z 30012KT 29/M03 A299 RMK A01 T02931031  RH  012%=      5-min Rain = 0
KSB1 242058Z 30013KT 30/M03 A299 RMK A01 T02951032  RH  012%=      5-min Rain = 0
KSB1 242059Z 32010KT 29/M03 A299 RMK A01 T02931034  RH  012%=      5-min Rain = 0
KSB1 242100Z 31009KT 29/M04 A299 RMK A01 T02891035  RH  012%=      5-min Rain = 0
KSB1 242101Z 29007KT 29/M04 A299 RMK A01 T02851035  RH  012%=      5-min Rain = 0
KSB1 242102Z 27008KT 28/M03 A299 RMK A01 T02831033  RH  012%=      5-min Rain = 0
KSB1 242103Z 26008KT 29/M03 A2989 RMK A01 T02851033  RH  012%=      5-min Rain = 0
KSB1 242104Z 27004KT 29/M03 A2989 RMK A01 T02861032  RH  012%=      5-min Rain = 0
KSB1 242105Z 28006KT 29/M03 A2989 RMK A01 T02861029  RH  013%=      5-min Rain = 0
KSB1 242106Z 34008G13KT 29/M03 A2989 RMK A01 T02911027  RH  012%=      5-min Rain = 0
KSB1 242107Z 32011KT 30/M02 A2989 RMK A01 T02961023  RH  012%=      5-min Rain = 0
KSB1 242108Z 29011G18KT 30/M02 A2989 RMK A01 T03011023  RH  012%=      5-min Rain = 0
KSB1 242109Z 28011G16KT 30/M02 A2989 RMK A01 T03041024  RH  012%=      5-min Rain = 0
KSB1 242110Z 29012G17KT 30/M03 A2989 RMK A01 T03031026  RH  012%=      5-min Rain = 0
KSB1 242111Z 30013KT 30/M03 A2989 RMK A01 T02951027  RH  012%=      5-min Rain = 0
KSB1 242112Z 27016G21KT 30/M02 A2989 RMK A01 T02971024  RH  012%=      5-min Rain = 0
KSB1 242113Z 28019KT 30/M02 A2989 RMK A01 T02981024  RH  012%=      5-min Rain = 0
KSB1 242114Z 28016G21KT 30/M02 A2989 RMK A01 T02961023  RH  012%=      5-min Rain = 0
KSB1 242115Z 29014KT 30/M02 A2989 RMK A01 T02951022  RH  013%=      5-min Rain = 0
KSB1 242116Z 28014KT 29/M02 A2989 RMK A01 T02941022  RH  013%=      5-min Rain = 0
KSB1 242117Z 27012KT 29/M02 A2989 RMK A01 T02941021  RH  013%=      5-min Rain = 0
KSB1 242118Z 27012KT 29/M02 A2989 RMK A01 T02891022  RH  013%=      5-min Rain = 0
KSB1 242119Z 28008G13KT 29/M02 A2988 RMK A01 T02891020  RH  013%=      5-min Rain = 0
KSB1 242120Z 29012G18KT 29/M02 A2988 RMK A01 T02911019  RH  013%=      5-min Rain = 0
KSB1 242121Z 26017G22KT 29/M02 A2988 RMK A01 T02921018  RH  013%=      5-min Rain = 0
KSB1 242122Z 24016KT 29/M02 A2988 RMK A01 T02921020  RH  013%=      5-min Rain = 0
KSB1 242123Z 22012KT 29/M02 A2988 RMK A01 T02911020  RH  013%=      5-min Rain = 0
KSB1 242124Z 22011KT 29/M02 A2988 RMK A01 T02921021  RH  013%=      5-min Rain = 0
KSB1 242125Z 23008KT 29/M02 A2988 RMK A01 T02931021  RH  013%=      5-min Rain = 0
KSB1 242126Z 24011KT 29/M02 A2988 RMK A01 T02911021  RH  013%=      5-min Rain = 0
KSB1 242127Z 25009KT 29/M02 A2988 RMK A01 T02891021  RH  013%=      5-min Rain = 0
KSB1 242128Z 28008KT 29/M02 A2988 RMK A01 T02881020  RH  013%=      5-min Rain = 0
KSB1 242129Z 27013KT 29/M02 A2988 RMK A01 T02891019  RH  013%=      5-min Rain = 0
KSB1 242130Z 26015KT 29/M02 A2988 RMK A01 T02921017  RH  013%=      5-min Rain = 0
KSB1 242131Z 27009KT 29/M02 A2988 RMK A01 T02931018  RH  013%=      5-min Rain = 0
KSB1 242132Z 29009KT 29/M02 A2988 RMK A01 T02931019  RH  013%=      5-min Rain = 0
KSB1 242133Z 29009KT 29/M02 A2988 RMK A01 T02921019  RH  013%=      5-min Rain = 0
KSB1 242134Z 28011KT 29/M02 A2988 RMK A01 T02931020  RH  013%=      5-min Rain = 0
KSB1 242135Z 27012KT 29/M02 A2988 RMK A01 T02901021  RH  013%=      5-min Rain = 0
KSB1 242136Z 29008KT 29/M02 A2988 RMK A01 T02901020  RH  013%=      5-min Rain = 0
KSB1 242137Z 29008G13KT 29/M02 A2988 RMK A01 T02921017  RH  013%=      5-min Rain = 0
KSB1 242138Z 28009KT 30/M02 A2988 RMK A01 T02961018  RH  013%=      5-min Rain = 0
KSB1 242139Z 28014KT 30/M02 A2988 RMK A01 T02991017  RH  013%=      5-min Rain = 0
KSB1 242140Z 28014KT 30/M02 A2987 RMK A01 T03001017  RH  013%=      5-min Rain = 0
KSB1 242141Z 29015G20KT 30/M02 A2987 RMK A01 T03021015  RH  013%=      5-min Rain = 0
KSB1 242142Z 28016KT 30/M02 A2987 RMK A01 T03031016  RH  013%=      5-min Rain = 0
KSB1 242143Z 27015G21KT 30/M02 A2987 RMK A01 T03001017  RH  013%=      5-min Rain = 0
KSB1 242144Z 27016KT 30/M02 A2987 RMK A01 T02991016  RH  013%=      5-min Rain = 0
KSB1 242145Z 27013KT 30/M02 A2987 RMK A01 T02951017  RH  013%=      5-min Rain = 0
KSB1 242146Z 27013KT 29/M02 A2987 RMK A01 T02931016  RH  013%=      5-min Rain = 0
KSB1 242147Z 25009KT 29/M02 A2987 RMK A01 T02911018  RH  013%=      5-min Rain = 0
KSB1 242148Z 25011KT 29/M02 A2987 RMK A01 T02881017  RH  014%=      5-min Rain = 0
KSB1 242149Z 27010KT 29/M02 A2987 RMK A01 T02901016  RH  014%=      5-min Rain = 0
KSB1 242150Z 27014G22KT 30/M01 A2987 RMK A01 T02951013  RH  013%=      5-min Rain = 0
KSB1 242151Z 28015KT 30/M02 A2987 RMK A01 T02981016  RH  013%=      5-min Rain = 0
KSB1 242152Z 26013KT 30/M02 A2987 RMK A01 T02971016  RH  013%=      5-min Rain = 0
KSB1 242153Z 27011KT 30/M02 A2987 RMK A01 T02961018  RH  013%=      5-min Rain = 0
KSB1 242154Z 28008KT 29/M02 A2987 RMK A01 T02921019  RH  013%=      5-min Rain = 0
KSB1 242155Z 31011KT 29/M02 A2987 RMK A01 T02911017  RH  013%=      5-min Rain = 0
KSB1 242156Z 28013KT 29/M02 A2987 RMK A01 T02921017  RH  013%=      5-min Rain = 0
KSB1 242157Z 27008KT 29/M02 A2987 RMK A01 T02911018  RH  013%=      5-min Rain = 0
KSB1 242158Z 31008G14KT 29/M02 A2987 RMK A01 T02891018  RH  013%=      5-min Rain = 0
KSB1 242159Z 31012KT 29/M02 A2987 RMK A01 T02921016  RH  013%=      5-min Rain = 0
KSB1 242200Z 32010KT 29/M02 A2987 RMK A01 T02921017  RH  013%=      5-min Rain = 0
KSB1 242201Z 32008KT 29/M02 A2986 RMK A01 T02921017  RH  013%=      5-min Rain = 0
KSB1 242202Z 28008KT 29/M02 A2987 RMK A01 T02931016  RH  013%=      5-min Rain = 0
KSB1 242203Z 28005KT 29/M02 A2986 RMK A01 T02911018  RH  013%=      5-min Rain = 0
KSB1 242204Z 34008KT 29/M02 A2986 RMK A01 T02901017  RH  013%=      5-min Rain = 0
KSB1 242205Z 34007KT 29/M02 A2986 RMK A01 T02891018  RH  013%=      5-min Rain = 0
KSB1 242206Z 34003KT 29/M02 A2986 RMK A01 T02861018  RH  014%=      5-min Rain = 0
KSB1 242207Z 29005KT 29/M02 A2986 RMK A01 T02861017  RH  014%=      5-min Rain = 0
KSB1 242208Z 30005KT 29/M02 A2986 RMK A01 T02861017  RH  014%=      5-min Rain = 0
KSB1 242209Z 28004KT 29/M02 A2986 RMK A01 T02901015  RH  014%=      5-min Rain = 0
KSB1 242210Z 27006KT 29/M02 A2986 RMK A01 T02941015  RH  013%=      5-min Rain = 0
KSB1 242211Z 28009KT 30/M02 A2986 RMK A01 T02951016  RH  013%=      5-min Rain = 0
KSB1 242212Z 30009KT 29/M02 A2986 RMK A01 T02941017  RH  013%=      5-min Rain = 0
KSB1 242213Z 28009KT 29/M02 A2986 RMK A01 T02901018  RH  013%=      5-min Rain = 0
KSB1 242214Z 28008KT 29/M02 A2986 RMK A01 T02901016  RH  014%=      5-min Rain = 0
KSB1 242215Z 28009KT 29/M02 A2986 RMK A01 T02911017  RH  013%=      5-min Rain = 0
KSB1 242216Z 28016G25KT 29/M02 A2986 RMK A01 T02931016  RH  013%=      5-min Rain = 0
KSB1 242217Z 27019G24KT 30/M02 A2986 RMK A01 T02961017  RH  013%=      5-min Rain = 0
KSB1 242218Z 28016KT 30/M02 A2986 RMK A01 T02951018  RH  013%=      5-min Rain = 0
KSB1 242219Z 28009G14KT 29/M02 A2986 RMK A01 T02931019  RH  013%=      5-min Rain = 0
KSB1 242220Z 30010KT 29/M02 A2986 RMK A01 T02921018  RH  013%=      5-min Rain = 0
KSB1 242221Z 30012KT 29/M02 A2986 RMK A01 T02931018  RH  013%=      5-min Rain = 0
KSB1 242222Z 27014KT 29/M02 A2986 RMK A01 T02941018  RH  013%=      5-min Rain = 0
KSB1 242223Z 28016KT 30/M02 A2986 RMK A01 T02971018  RH  013%=      5-min Rain = 0
KSB1 242224Z 26011KT 29/M02 A2986 RMK A01 T02931021  RH  013%=      5-min Rain = 0
KSB1 242225Z 22006KT 29/M02 A2986 RMK A01 T02881023  RH  013%=      5-min Rain = 0
KSB1 242226Z 21004KT 29/M02 A2986 RMK A01 T02861022  RH  013%=      5-min Rain = 0
KSB1 242227Z 27006KT 29/M02 A2986 RMK A01 T02891020  RH  013%=      5-min Rain = 0
KSB1 242228Z 30007G12KT 29/M02 A2985 RMK A01 T02921021  RH  013%=      5-min Rain = 0
KSB1 242229Z 31010KT 29/M02 A2985 RMK A01 T02931022  RH  013%=      5-min Rain = 0
KSB1 242230Z 31008G13KT 29/M02 A2985 RMK A01 T02931022  RH  013%=      5-min Rain = 0
KSB1 242231Z 33008KT 29/M02 A2985 RMK A01 T02941020  RH  013%=      5-min Rain = 0
KSB1 242232Z 31012KT 30/M02 A2985 RMK A01 T02971020  RH  013%=      5-min Rain = 0
KSB1 242233Z 32014KT 30/M02 A2985 RMK A01 T02971020  RH  013%=      5-min Rain = 0
KSB1 242234Z 30009KT 29/M02 A2985 RMK A01 T02941021  RH  013%=      5-min Rain = 0
KSB1 242235Z 31014KT 30/M02 A2985 RMK A01 T02951019  RH  013%=      5-min Rain = 0
KSB1 242236Z 29020KT 30/M02 A2985 RMK A01 T02971020  RH  013%=      5-min Rain = 0
KSB1 242237Z 29019G25KT 30/M02 A2985 RMK A01 T02961021  RH  013%=      5-min Rain = 0
KSB1 242238Z 30018KT 30/M02 A2985 RMK A01 T02951021  RH  013%=      5-min Rain = 0
KSB1 242239Z 29018KT 29/M02 A2985 RMK A01 T02941022  RH  013%=      5-min Rain = 0
KSB1 242240Z 28011KT 29/M02 A2985 RMK A01 T02911023  RH  013%=      5-min Rain = 0
KSB1 242241Z 29010KT 29/M02 A2985 RMK A01 T02901022  RH  013%=      5-min Rain = 0
KSB1 242242Z 29012KT 29/M02 A2985 RMK A01 T02921022  RH  013%=      5-min Rain = 0
KSB1 242243Z 27018KT 29/M02 A2985 RMK A01 T02941022  RH  013%=      5-min Rain = 0
KSB1 242244Z 27020KT 30/M02 A2985 RMK A01 T02951023  RH  013%=      5-min Rain = 0
KSB1 242245Z 28015KT 29/M03 A2985 RMK A01 T02931025  RH  013%=      5-min Rain = 0
KSB1 242246Z 26010KT 29/M02 A2985 RMK A01 T02911024  RH  013%=      5-min Rain = 0
KSB1 242247Z 26011KT 29/M02 A2985 RMK A01 T02941022  RH  013%=      5-min Rain = 0
KSB1 242248Z 30010KT 30/M02 A2985 RMK A01 T02951022  RH  013%=      5-min Rain = 0
KSB1 242249Z 29008KT 29/M03 A2985 RMK A01 T02931025  RH  012%=      5-min Rain = 0
KSB1 242250Z 29007KT 29/M03 A2985 RMK A01 T02901025  RH  013%=      5-min Rain = 0
KSB1 242251Z 29009KT 29/M03 A2985 RMK A01 T02881025  RH  013%=      5-min Rain = 0
KSB1 242252Z 27009KT 29/M03 A2985 RMK A01 T02871025  RH  013%=      5-min Rain = 0
KSB1 242253Z 25010KT 29/M02 A2985 RMK A01 T02871024  RH  013%=      5-min Rain = 0
KSB1 242254Z 27017G23KT 29/M02 A2984 RMK A01 T02921023  RH  013%=      5-min Rain = 0
KSB1 242255Z 28017G22KT 30/M03 A2985 RMK A01 T02951025  RH  012%=      5-min Rain = 0
KSB1 242256Z 29015KT 29/M03 A2985 RMK A01 T02941027  RH  012%=      5-min Rain = 0
KSB1 242257Z 29017KT 29/M03 A2985 RMK A01 T02931026  RH  012%=      5-min Rain = 0
KSB1 242258Z 29013G18KT 29/M03 A2985 RMK A01 T02931026  RH  012%=      5-min Rain = 0
KSB1 242259Z 28010KT 29/M02 A2984 RMK A01 T02911024  RH  013%=      5-min Rain = 0
KSB1 242300Z 28013G20KT 29/M02 A2984 RMK A01 T02911021  RH  013%=      5-min Rain = 0
KSB1 242301Z 27014KT 29/M02 A2984 RMK A01 T02931019  RH  013%=      5-min Rain = 0
KSB1 242302Z 28009KT 29/M02 A2984 RMK A01 T02931019  RH  013%=      5-min Rain = 0
KSB1 242303Z 30010KT 30/M02 A2984 RMK A01 T02951017  RH  013%=      5-min Rain = 0
KSB1 242304Z 30010KT 30/M02 A2985 RMK A01 T02991017  RH  013%=      5-min Rain = 0
KSB1 242305Z 29012KT 30/M02 A2984 RMK A01 T02971018  RH  013%=      5-min Rain = 0
KSB1 242306Z 29012KT 30/M02 A2985 RMK A01 T02971018  RH  013%=      5-min Rain = 0
KSB1 242307Z 32011KT 30/M02 A2985 RMK A01 T02961019  RH  013%=      5-min Rain = 0
KSB1 242308Z 32011KT 29/M02 A2984 RMK A01 T02941020  RH  013%=      5-min Rain = 0
KSB1 242309Z 31010KT 29/M02 A2984 RMK A01 T02941020  RH  013%=      5-min Rain = 0
KSB1 242310Z 31011KT 29/M02 A2984 RMK A01 T02921020  RH  013%=      5-min Rain = 0
KSB1 242311Z 32009KT 29/M02 A2984 RMK A01 T02921020  RH  013%=      5-min Rain = 0
KSB1 242312Z 28010KT 29/M02 A2984 RMK A01 T02921021  RH  013%=      5-min Rain = 0
KSB1 242313Z 30010KT 29/M03 A2984 RMK A01 T02911026  RH  013%=      5-min Rain = 0
KSB1 242314Z 31013KT 29/M03 A2984 RMK A01 T02911026  RH  013%=      5-min Rain = 0
KSB1 242315Z 31015KT 29/M03 A2984 RMK A01 T02931027  RH  012%=      5-min Rain = 0
KSB1 242316Z 28012KT 29/M03 A2984 RMK A01 T02941026  RH  012%=      5-min Rain = 0
KSB1 242317Z 27014KT 30/M03 A2984 RMK A01 T02951026  RH  012%=      5-min Rain = 0
KSB1 242318Z 29018KT 30/M03 A2984 RMK A01 T02971026  RH  012%=      5-min Rain = 0
KSB1 242319Z 29015KT 29/M03 A2984 RMK A01 T02941029  RH  012%=      5-min Rain = 0
KSB1 242320Z 28015KT 29/M03 A2984 RMK A01 T02911029  RH  012%=      5-min Rain = 0
KSB1 242321Z 29020G28KT 29/M03 A2984 RMK A01 T02911028  RH  012%=      5-min Rain = 0
KSB1 242322Z 29014KT 29/M03 A2984 RMK A01 T02921028  RH  012%=      5-min Rain = 0
KSB1 242323Z 29011KT 29/M03 A2984 RMK A01 T02921028  RH  012%=      5-min Rain = 0
KSB1 242324Z 30011KT 29/M03 A2984 RMK A01 T02921028  RH  012%=      5-min Rain = 0
KSB1 242325Z 27014KT 29/M03 A2984 RMK A01 T02911028  RH  012%=      5-min Rain = 0
KSB1 242326Z 26013KT 29/M03 A2984 RMK A01 T02931027  RH  012%=      5-min Rain = 0
KSB1 242327Z 27011G16KT 29/M03 A2984 RMK A01 T02921028  RH  012%=      5-min Rain = 0
KSB1 242328Z 29010KT 29/M03 A2984 RMK A01 T02931026  RH  012%=      5-min Rain = 0
KSB1 242329Z 31012G17KT 30/M03 A2983 RMK A01 T02951025  RH  012%=      5-min Rain = 0
KSB1 242330Z 31011KT 29/M03 A2983 RMK A01 T02941027  RH  012%=      5-min Rain = 0
KSB1 242331Z 32014KT 29/M03 A2983 RMK A01 T02931026  RH  012%=      5-min Rain = 0
KSB1 242332Z 32013KT 29/M03 A2983 RMK A01 T02921027  RH  012%=      5-min Rain = 0
KSB1 242333Z 32013KT 29/M03 A2983 RMK A01 T02931026  RH  012%=      5-min Rain = 0
KSB1 242334Z 32016G21KT 29/M03 A2983 RMK A01 T02941026  RH  012%=      5-min Rain = 0
KSB1 242335Z 32014G19KT 29/M03 A2983 RMK A01 T02941026  RH  012%=      5-min Rain = 0
KSB1 242336Z 30015KT 29/M03 A2983 RMK A01 T02921025  RH  013%=      5-min Rain = 0
KSB1 242337Z 31012KT 29/M03 A2984 RMK A01 T02921025  RH  013%=      5-min Rain = 0
KSB1 242338Z 29011KT 29/M02 A2984 RMK A01 T02931024  RH  013%=      5-min Rain = 0
KSB1 242339Z 30012KT 30/M02 A2984 RMK A01 T02951023  RH  013%=      5-min Rain = 0
KSB1 242340Z 29011G16KT 30/M02 A2984 RMK A01 T02971024  RH  012%=      5-min Rain = 0
KSB1 242341Z 30010KT 30/M02 A2984 RMK A01 T02951024  RH  012%=      5-min Rain = 0
KSB1 242342Z 30013KT 30/M03 A2983 RMK A01 T02951025  RH  012%=      5-min Rain = 0
KSB1 242343Z 31011KT 29/M03 A2983 RMK A01 T02931025  RH  012%=      5-min Rain = 0
KSB1 242344Z 32009KT 29/M03 A2983 RMK A01 T02901025  RH  013%=      5-min Rain = 0
KSB1 242345Z 30009KT 29/M02 A2983 RMK A01 T02911023  RH  013%=      5-min Rain = 0
KSB1 242346Z 29011KT 30/M02 A2983 RMK A01 T02951023  RH  013%=      5-min Rain = 0
KSB1 242347Z 29018G24KT 30/M02 A2983 RMK A01 T02971024  RH  012%=      5-min Rain = 0
KSB1 242348Z 29020G25KT 30/M02 A2983 RMK A01 T02951024  RH  012%=      5-min Rain = 0
KSB1 242349Z 29020KT 29/M02 A2983 RMK A01 T02911024  RH  013%=      5-min Rain = 0
KSB1 242350Z 28017KT 29/M02 A2983 RMK A01 T02911023  RH  013%=      5-min Rain = 0
KSB1 242351Z 28012G18KT 29/M02 A2983 RMK A01 T02891024  RH  013%=      5-min Rain = 0
KSB1 242352Z 28017KT 29/M02 A2983 RMK A01 T02891023  RH  013%=      5-min Rain = 0
KSB1 242353Z 28015KT 29/M02 A2983 RMK A01 T02891024  RH  013%=      5-min Rain = 0
KSB1 242354Z 27010KT 29/M02 A2983 RMK A01 T02891024  RH  013%=      5-min Rain = 0
KSB1 242355Z 29012KT 29/M02 A2983 RMK A01 T02891024  RH  013%=      5-min Rain = 0
KSB1 242356Z 28010KT 29/M03 A2983 RMK A01 T02881025  RH  013%=      5-min Rain = 0
KSB1 242357Z 28013KT 29/M03 A2983 RMK A01 T02861025  RH  013%=      5-min Rain = 0
KSB1 242358Z 30012G17KT 29/M02 A2983 RMK A01 T02881024  RH  013%=      5-min Rain = 0
KSB1 242359Z 29012KT 29/M03 A2983 RMK A01 T02891025  RH  013%=      5-min Rain = 0
KSB1 250000Z 28016KT 29/M03 A2983 RMK A01 T02891026  RH  013%=      5-min Rain = 0
KSB1 250001Z 27016KT 29/M03 A2983 RMK A01 T02891026  RH  013%=      5-min Rain = 0
KSB1 250002Z 28014KT 29/M03 A2983 RMK A01 T02891027  RH  013%=      5-min Rain = 0
KSB1 250003Z 27012KT 29/M03 A2983 RMK A01 T02891027  RH  013%=      5-min Rain = 0
KSB1 250004Z 28011KT 29/M03 A2983 RMK A01 T02901026  RH  013%=      5-min Rain = 0
KSB1 250005Z 30011G17KT 29/M03 A2983 RMK A01 T02911026  RH  013%=      5-min Rain = 0
KSB1 250006Z 30013KT 29/M03 A2983 RMK A01 T02911027  RH  012%=      5-min Rain = 0
KSB1 250007Z 28010KT 29/M03 A2983 RMK A01 T02891027  RH  013%=      5-min Rain = 0
KSB1 250008Z 29010KT 29/M03 A2983 RMK A01 T02891027  RH  013%=      5-min Rain = 0
KSB1 250009Z 29009KT 29/M03 A2983 RMK A01 T02901026  RH  013%=      5-min Rain = 0
KSB1 250010Z 31006KT 29/M03 A2983 RMK A01 T02891028  RH  013%=      5-min Rain = 0
KSB1 250011Z 31007KT 29/M03 A2983 RMK A01 T02891027  RH  013%=      5-min Rain = 0
KSB1 250012Z 31008KT 29/M03 A2983 RMK A01 T02891027  RH  013%=      5-min Rain = 0
KSB1 250013Z 29011G16KT 29/M03 A2983 RMK A01 T02891029  RH  012%=      5-min Rain = 0
KSB1 250014Z 27014G19KT 29/M03 A2983 RMK A01 T02891030  RH  012%=      5-min Rain = 0
KSB1 250015Z 29015G20KT 29/M03 A2983 RMK A01 T02891032  RH  012%=      5-min Rain = 0
KSB1 250016Z 29018KT 29/M03 A2982 RMK A01 T02901033  RH  012%=      5-min Rain = 0
KSB1 250017Z 29019KT 29/M03 A2982 RMK A01 T02901034  RH  012%=      5-min Rain = 0
KSB1 250018Z 29016KT 29/M04 A2982 RMK A01 T02891035  RH  012%=      5-min Rain = 0
KSB1 250019Z 28017KT 29/M04 A2982 RMK A01 T02881036  RH  012%=      5-min Rain = 0
KSB1 250020Z 28013KT 29/M04 A2982 RMK A01 T02871037  RH  012%=      5-min Rain = 0
KSB1 250021Z 28012KT 29/M04 A2982 RMK A01 T02861037  RH  012%=      5-min Rain = 0
KSB1 250022Z 30012KT 29/M04 A2982 RMK A01 T02861037  RH  012%=      5-min Rain = 0
KSB1 250023Z 30012KT 29/M04 A2982 RMK A01 T02861037  RH  012%=      5-min Rain = 0
KSB1 250024Z 30009KT 29/M04 A2982 RMK A01 T02861039  RH  012%=      5-min Rain = 0
KSB1 250025Z 28010KT 29/M04 A2982 RMK A01 T02861038  RH  012%=      5-min Rain = 0
KSB1 250026Z 30010KT 29/M04 A2982 RMK A01 T02861039  RH  012%=      5-min Rain = 0
KSB1 250027Z 31013KT 29/M04 A2982 RMK A01 T02861040  RH  012%=      5-min Rain = 0
KSB1 250028Z 31014G19KT 29/M04 A2982 RMK A01 T02871041  RH  011%=      5-min Rain = 0
KSB1 250029Z 30019G27KT 29/M04 A2982 RMK A01 T02881041  RH  011%=      5-min Rain = 0
KSB1 250030Z 30024KT 29/M04 A2982 RMK A01 T02871043  RH  011%=      5-min Rain = 0
KSB1 250031Z 30019KT 29/M04 A2982 RMK A01 T02851044  RH  011%=      5-min Rain = 0
KSB1 250032Z 30015KT 28/M04 A2982 RMK A01 T02841044  RH  011%=      5-min Rain = 0
KSB1 250033Z 29011KT 28/M04 A2982 RMK A01 T02831044  RH  011%=      5-min Rain = 0
KSB1 250034Z 31010G24KT 28/M04 A2982 RMK A01 T02831043  RH  012%=      5-min Rain = 0
KSB1 250035Z 31016G22KT 28/M04 A2982 RMK A01 T02841044  RH  011%=      5-min Rain = 0
KSB1 250036Z 30014KT 28/M04 A2982 RMK A01 T02841044  RH  011%=      5-min Rain = 0
KSB1 250037Z 31016KT 28/M04 A2982 RMK A01 T02841043  RH  011%=      5-min Rain = 0
KSB1 250038Z 30013KT 28/M05 A2982 RMK A01 T02831045  RH  011%=      5-min Rain = 0
KSB1 250039Z 30013G19KT 28/M04 A2982 RMK A01 T02831044  RH  011%=      5-min Rain = 0
KSB1 250040Z 31012KT 28/M05 A2982 RMK A01 T02841045  RH  011%=      5-min Rain = 0
KSB1 250041Z 30012KT 28/M05 A2982 RMK A01 T02841045  RH  011%=      5-min Rain = 0
KSB1 250042Z 29010G15KT 28/M05 A2982 RMK A01 T02841046  RH  011%=      5-min Rain = 0
KSB1 250043Z 29011KT 29/M04 A2982 RMK A01 T02851044  RH  011%=      5-min Rain = 0
KSB1 250044Z 29012KT 29/M05 A2982 RMK A01 T02861046  RH  011%=      5-min Rain = 0
KSB1 250045Z 27012KT 29/M05 A2982 RMK A01 T02861046  RH  011%=      5-min Rain = 0
KSB1 250046Z 27014KT 29/M05 A2982 RMK A01 T02861047  RH  011%=      5-min Rain = 0
KSB1 250047Z 28013KT 29/M05 A2982 RMK A01 T02851048  RH  011%=      5-min Rain = 0
KSB1 250048Z 30012KT 29/M05 A2982 RMK A01 T02851048  RH  011%=      5-min Rain = 0
KSB1 250049Z 30014KT 29/M05 A2982 RMK A01 T02851049  RH  011%=      5-min Rain = 0
KSB1 250050Z 31012KT 28/M05 A2982 RMK A01 T02831049  RH  011%=      5-min Rain = 0
KSB1 250051Z 31010KT 28/M05 A2982 RMK A01 T02821048  RH  011%=      5-min Rain = 0
KSB1 250052Z 31014KT 28/M05 A2982 RMK A01 T02821048  RH  011%=      5-min Rain = 0
KSB1 250053Z 29011G19KT 28/M05 A2982 RMK A01 T02821049  RH  011%=      5-min Rain = 0
KSB1 250054Z 28012KT 28/M05 A2982 RMK A01 T02831048  RH  011%=      5-min Rain = 0
KSB1 250055Z 28017KT 28/M05 A2982 RMK A01 T02831049  RH  011%=      5-min Rain = 0
KSB1 250056Z 28016KT 28/M05 A2982 RMK A01 T02831051  RH  011%=      5-min Rain = 0
KSB1 250057Z 28016KT 28/M05 A2982 RMK A01 T02831052  RH  011%=      5-min Rain = 0
KSB1 250058Z 28014G20KT 28/M05 A2982 RMK A01 T02811054  RH  011%=      5-min Rain = 0
KSB1 250059Z 28012KT 28/M05 A2982 RMK A01 T02811052  RH  011%=      5-min Rain = 0
KSB1 250100Z 28013KT 28/M05 A2982 RMK A01 T02811052  RH  011%=      5-min Rain = 0
KSB1 250101Z 27013KT 28/M05 A2982 RMK A01 T02811052  RH  011%=      5-min Rain = 0
KSB1 250102Z 28013KT 28/M05 A2982 RMK A01 T02811051  RH  011%=      5-min Rain = 0
KSB1 250103Z 27013KT 28/M05 A2982 RMK A01 T02801051  RH  011%=      5-min Rain = 0
KSB1 250104Z 27015KT 28/M05 A2982 RMK A01 T02801051  RH  011%=      5-min Rain = 0
KSB1 250105Z 27014KT 28/M05 A2982 RMK A01 T02791051  RH  011%=      5-min Rain = 0
KSB1 250106Z 27012KT 28/M05 A2982 RMK A01 T02791050  RH  011%=      5-min Rain = 0
KSB1 250107Z 27012KT 28/M05 A2982 RMK A01 T02801050  RH  011%=      5-min Rain = 0
KSB1 250108Z 26012KT 28/M05 A2982 RMK A01 T02791050  RH  011%=      5-min Rain = 0
KSB1 250109Z 26013KT 28/M05 A2982 RMK A01 T02791050  RH  011%=      5-min Rain = 0
KSB1 250110Z 26014KT 28/M05 A2982 RMK A01 T02791052  RH  011%=      5-min Rain = 0
KSB1 250111Z 27011KT 28/M05 A2982 RMK A01 T02781052  RH  011%=      5-min Rain = 0
KSB1 250112Z 27011KT 28/M05 A2982 RMK A01 T02771051  RH  011%=      5-min Rain = 0
KSB1 250113Z 29013KT 28/M05 A2982 RMK A01 T02771051  RH  011%=      5-min Rain = 0
KSB1 250114Z 29010KT 28/M05 A2982 RMK A01 T02771051  RH  011%=      5-min Rain = 0
KSB1 250115Z 30009KT 28/M05 A2982 RMK A01 T02771050  RH  011%=      5-min Rain = 0
KSB1 250116Z 28010KT 28/M05 A2982 RMK A01 T02771050  RH  011%=      5-min Rain = 0
KSB1 250117Z 28011KT 28/M05 A2982 RMK A01 T02771049  RH  011%=      5-min Rain = 0
KSB1 250118Z 27011KT 28/M05 A2982 RMK A01 T02781048  RH  011%=      5-min Rain = 0
KSB1 250119Z 28009G14KT 28/M05 A2982 RMK A01 T02771049  RH  011%=      5-min Rain = 0
KSB1 250120Z 28010G15KT 28/M05 A2982 RMK A01 T02761048  RH  012%=      5-min Rain = 0
KSB1 250121Z 29012KT 28/M05 A2982 RMK A01 T02761048  RH  012%=      5-min Rain = 0
KSB1 250122Z 29009KT 28/M05 A2982 RMK A01 T02761048  RH  012%=      5-min Rain = 0
KSB1 250123Z 28007KT 28/M05 A2982 RMK A01 T02761048  RH  012%=      5-min Rain = 0
KSB1 250124Z 29010KT 28/M05 A2982 RMK A01 T02751048  RH  012%=      5-min Rain = 0
KSB1 250125Z 28012KT 28/M05 A2982 RMK A01 T02751048  RH  012%=      5-min Rain = 0
KSB1 250126Z 29012KT 28/M05 A2982 RMK A01 T02751048  RH  012%=      5-min Rain = 0
KSB1 250127Z 29013KT 28/M05 A2982 RMK A01 T02751048  RH  012%=      5-min Rain = 0
KSB1 250128Z 28014G20KT 27/M05 A2982 RMK A01 T02741049  RH  012%=      5-min Rain = 0
KSB1 250129Z 28016KT 27/M05 A2982 RMK A01 T02731049  RH  012%=      5-min Rain = 0
KSB1 250130Z 27013G18KT 27/M05 A2982 RMK A01 T02731049  RH  012%=      5-min Rain = 0
KSB1 250131Z 27013KT 27/M05 A2982 RMK A01 T02731048  RH  012%=      5-min Rain = 0
KSB1 250132Z 29010KT 27/M05 A2982 RMK A01 T02721047  RH  012%=      5-min Rain = 0
KSB1 250133Z 31007KT 27/M05 A2982 RMK A01 T02721047  RH  012%=      5-min Rain = 0
KSB1 250134Z 31009KT 27/M05 A2982 RMK A01 T02711047  RH  012%=      5-min Rain = 0
KSB1 250135Z 31010KT 27/M05 A2982 RMK A01 T02711046  RH  012%=      5-min Rain = 0
KSB1 250136Z 29010KT 27/M05 A2982 RMK A01 T02721045  RH  012%=      5-min Rain = 0
KSB1 250137Z 28011KT 27/M05 A2982 RMK A01 T02721045  RH  012%=      5-min Rain = 0
KSB1 250138Z 27011KT 27/M05 A2983 RMK A01 T02711045  RH  012%=      5-min Rain = 0
KSB1 250139Z 28013G18KT 27/M05 A2983 RMK A01 T02701045  RH  012%=      5-min Rain = 0
KSB1 250140Z 28012KT 27/M05 A2983 RMK A01 T02691046  RH  012%=      5-min Rain = 0
KSB1 250141Z 29011G16KT 27/M05 A2983 RMK A01 T02691046  RH  012%=      5-min Rain = 0
KSB1 250142Z 29012KT 27/M05 A2983 RMK A01 T02681046  RH  012%=      5-min Rain = 0
KSB1 250143Z 28011KT 27/M05 A2983 RMK A01 T02681046  RH  012%=      5-min Rain = 0
KSB1 250144Z 28013G18KT 27/M05 A2983 RMK A01 T02681046  RH  012%=      5-min Rain = 0
KSB1 250145Z 29015KT 27/M04 A2983 RMK A01 T02681044  RH  012%=      5-min Rain = 0
KSB1 250146Z 30010KT 27/M04 A2983 RMK A01 T02681043  RH  013%=      5-min Rain = 0
KSB1 250147Z 28013KT 27/M04 A2983 RMK A01 T02691043  RH  013%=      5-min Rain = 0
KSB1 250148Z 27012KT 27/M04 A2983 RMK A01 T02681043  RH  013%=      5-min Rain = 0
KSB1 250149Z 28010G15KT 27/M04 A2983 RMK A01 T02681043  RH  013%=      5-min Rain = 0
KSB1 250150Z 30009KT 27/M04 A2983 RMK A01 T02671042  RH  013%=      5-min Rain = 0
KSB1 250151Z 30009KT 27/M04 A2983 RMK A01 T02671041  RH  013%=      5-min Rain = 0
KSB1 250152Z 31009KT 27/M04 A2983 RMK A01 T02671041  RH  013%=      5-min Rain = 0
KSB1 250153Z 31009G14KT 27/M04 A2983 RMK A01 T02661039  RH  013%=      5-min Rain = 0
KSB1 250154Z 31011KT 27/M04 A2983 RMK A01 T02661035  RH  014%=      5-min Rain = 0
KSB1 250155Z 31010KT 27/M03 A2983 RMK A01 T02661033  RH  014%=      5-min Rain = 0
KSB1 250156Z 31010KT 27/M03 A2983 RMK A01 T02651032  RH  014%=      5-min Rain = 0
KSB1 250157Z 30011KT 27/M03 A2983 RMK A01 T02651032  RH  014%=      5-min Rain = 0
KSB1 250158Z 30011KT 26/M03 A2983 RMK A01 T02641032  RH  014%=      5-min Rain = 0
KSB1 250159Z 31014KT 26/M03 A2983 RMK A01 T02641032  RH  014%=      5-min Rain = 0
KSB1 250200Z 31014KT 27/M03 A2983 RMK A01 T02651033  RH  014%=      5-min Rain = 0
KSB1 250201Z 31014KT 27/M03 A2983 RMK A01 T02661033  RH  014%=      5-min Rain = 0
KSB1 250202Z 32013KT 27/M03 A2983 RMK A01 T02651033  RH  014%=      5-min Rain = 0
KSB1 250203Z 31013KT 27/M03 A2983 RMK A01 T02651032  RH  014%=      5-min Rain = 0
KSB1 250204Z 31012KT 27/M03 A2983 RMK A01 T02651032  RH  014%=      5-min Rain = 0
KSB1 250205Z 31010KT 26/M03 A2983 RMK A01 T02641031  RH  014%=      5-min Rain = 0
KSB1 250206Z 31011KT 26/M03 A2983 RMK A01 T02641031  RH  014%=      5-min Rain = 0
KSB1 250207Z 30011KT 26/M03 A2983 RMK A01 T02631031  RH  014%=      5-min Rain = 0
KSB1 250208Z 31010KT 26/M03 A2983 RMK A01 T02631030  RH  014%=      5-min Rain = 0
KSB1 250209Z 32011KT 26/M03 A2983 RMK A01 T02621030  RH  014%=      5-min Rain = 0
KSB1 250210Z 31012KT 26/M03 A2983 RMK A01 T02621030  RH  014%=      5-min Rain = 0
KSB1 250211Z 31013KT 26/M03 A2983 RMK A01 T02621029  RH  014%=      5-min Rain = 0
KSB1 250212Z 31011KT 26/M03 A2983 RMK A01 T02621030  RH  014%=      5-min Rain = 0
KSB1 250213Z 30010KT 26/M03 A2983 RMK A01 T02631029  RH  014%=      5-min Rain = 0
KSB1 250214Z 31012KT 26/M03 A2983 RMK A01 T02631029  RH  014%=      5-min Rain = 0
KSB1 250215Z 31009KT 26/M03 A2983 RMK A01 T02621029  RH  014%=      5-min Rain = 0
KSB1 250216Z 31012KT 26/M03 A2983 RMK A01 T02621029  RH  014%=      5-min Rain = 0
KSB1 250217Z 31010KT 26/M03 A2984 RMK A01 T02621029  RH  014%=      5-min Rain = 0
KSB1 250218Z 30009KT 26/M03 A2984 RMK A01 T02621029  RH  015%=      5-min Rain = 0
KSB1 250219Z 30010KT 26/M03 A2984 RMK A01 T02611029  RH  015%=      5-min Rain = 0
KSB1 250220Z 30010KT 26/M03 A2984 RMK A01 T02611029  RH  015%=      5-min Rain = 0
KSB1 250221Z 30011KT 26/M03 A2984 RMK A01 T02611029  RH  015%=      5-min Rain = 0
KSB1 250222Z 30010KT 26/M03 A2984 RMK A01 T02611029  RH  015%=      5-min Rain = 0
KSB1 250223Z 31010KT 26/M03 A2984 RMK A01 T02621028  RH  015%=      5-min Rain = 0
KSB1 250224Z 31012KT 26/M03 A2984 RMK A01 T02611029  RH  015%=      5-min Rain = 0
KSB1 250225Z 30012KT 26/M03 A2984 RMK A01 T02611028  RH  015%=      5-min Rain = 0
KSB1 250226Z 31009KT 26/M03 A2984 RMK A01 T02611028  RH  015%=      5-min Rain = 0
KSB1 250227Z 31010KT 26/M03 A2984 RMK A01 T02611028  RH  015%=      5-min Rain = 0
KSB1 250228Z 31010KT 26/M03 A2984 RMK A01 T02601027  RH  015%=      5-min Rain = 0
KSB1 250229Z 31012KT 26/M03 A2984 RMK A01 T02601026  RH  015%=      5-min Rain = 0
KSB1 250230Z 31011KT 26/M03 A2984 RMK A01 T02601025  RH  015%=      5-min Rain = 0
KSB1 250231Z 30008KT 26/M03 A2984 RMK A01 T02591025  RH  015%=      5-min Rain = 0
KSB1 250232Z 30009KT 26/M03 A2984 RMK A01 T02591025  RH  015%=      5-min Rain = 0
KSB1 250233Z 30009KT 26/M03 A2984 RMK A01 T02591025  RH  015%=      5-min Rain = 0
KSB1 250234Z 31009KT 26/M02 A2984 RMK A01 T02581024  RH  015%=      5-min Rain = 0
KSB1 250235Z 31010KT 26/M02 A2984 RMK A01 T02581024  RH  015%=      5-min Rain = 0
KSB1 250236Z 30010KT 26/M02 A2984 RMK A01 T02581024  RH  015%=      5-min Rain = 0
KSB1 250237Z 31009KT 26/M02 A2984 RMK A01 T02581024  RH  015%=      5-min Rain = 0
KSB1 250238Z 30010KT 26/M02 A2984 RMK A01 T02581023  RH  016%=      5-min Rain = 0
KSB1 250239Z 30009KT 26/M02 A2984 RMK A01 T02581024  RH  016%=      5-min Rain = 0
KSB1 250240Z 31008KT 26/M02 A2984 RMK A01 T02581023  RH  016%=      5-min Rain = 0
KSB1 250241Z 30008KT 26/M02 A2984 RMK A01 T02581023  RH  016%=      5-min Rain = 0
KSB1 250242Z 30008KT 26/M02 A2984 RMK A01 T02571023  RH  016%=      5-min Rain = 0
KSB1 250243Z 30010KT 26/M02 A2984 RMK A01 T02561023  RH  016%=      5-min Rain = 0
KSB1 250244Z 31011KT 26/M02 A2984 RMK A01 T02561023  RH  016%=      5-min Rain = 0
KSB1 250245Z 30011KT 26/M02 A2984 RMK A01 T02571022  RH  016%=      5-min Rain = 0
KSB1 250246Z 30008KT 26/M02 A2984 RMK A01 T02571023  RH  016%=      5-min Rain = 0
KSB1 250247Z 31009KT 26/M02 A2984 RMK A01 T02571023  RH  016%=      5-min Rain = 0
KSB1 250248Z 31010KT 26/M02 A2984 RMK A01 T02571022  RH  016%=      5-min Rain = 0
KSB1 250249Z 30008KT 26/M02 A2984 RMK A01 T02561023  RH  016%=      5-min Rain = 0
KSB1 250250Z 30007KT 26/M02 A2984 RMK A01 T02561022  RH  016%=      5-min Rain = 0
KSB1 250251Z 30006KT 26/M02 A2984 RMK A01 T02561022  RH  016%=      5-min Rain = 0
KSB1 250252Z 30008KT 26/M02 A2984 RMK A01 T02551022  RH  016%=      5-min Rain = 0
KSB1 250253Z 30006KT 25/M02 A2984 RMK A01 T02541023  RH  016%=      5-min Rain = 0
KSB1 250254Z 30007KT 25/M02 A2984 RMK A01 T02541023  RH  016%=      5-min Rain = 0
KSB1 250255Z 31009KT 25/M02 A2984 RMK A01 T02531023  RH  016%=      5-min Rain = 0
KSB1 250256Z 30007KT 25/M02 A2984 RMK A01 T02541023  RH  016%=      5-min Rain = 0
KSB1 250257Z 30007KT 25/M02 A2984 RMK A01 T02531023  RH  016%=      5-min Rain = 0
KSB1 250258Z 30006KT 25/M02 A2984 RMK A01 T02541023  RH  016%=      5-min Rain = 0
KSB1 250259Z 31009KT 25/M02 A2984 RMK A01 T02531024  RH  016%=      5-min Rain = 0
KSB1 250300Z 30007KT 25/M02 A2984 RMK A01 T02541024  RH  016%=      5-min Rain = 0
KSB1 250301Z 31006KT 25/M02 A2984 RMK A01 T02541024  RH  016%=      5-min Rain = 0
KSB1 250302Z 30008KT 25/M02 A2984 RMK A01 T02541024  RH  016%=      5-min Rain = 0
KSB1 250303Z 30008KT 25/M02 A2984 RMK A01 T02541024  RH  016%=      5-min Rain = 0
KSB1 250304Z 31009KT 25/M03 A2984 RMK A01 T02541025  RH  016%=      5-min Rain = 0
KSB1 250305Z 31011KT 26/M03 A2984 RMK A01 T02551025  RH  016%=      5-min Rain = 0
KSB1 250306Z 31010KT 26/M03 A2984 RMK A01 T02561025  RH  016%=      5-min Rain = 0
KSB1 250307Z 31012KT 26/M03 A2984 RMK A01 T02561025  RH  015%=      5-min Rain = 0
KSB1 250308Z 31011KT 26/M03 A2984 RMK A01 T02561027  RH  015%=      5-min Rain = 0
KSB1 250309Z 31012KT 26/M03 A2984 RMK A01 T02561027  RH  015%=      5-min Rain = 0
KSB1 250310Z 32012KT 26/M03 A2984 RMK A01 T02561028  RH  015%=      5-min Rain = 0
KSB1 250311Z 31011KT 26/M03 A2984 RMK A01 T02561029  RH  015%=      5-min Rain = 0
KSB1 250312Z 30009KT 26/M03 A2984 RMK A01 T02561030  RH  015%=      5-min Rain = 0
KSB1 250313Z 31010KT 26/M03 A2984 RMK A01 T02561030  RH  015%=      5-min Rain = 0
KSB1 250314Z 30011KT 26/M03 A2984 RMK A01 T02551030  RH  015%=      5-min Rain = 0
KSB1 250315Z 30011KT 26/M03 A2984 RMK A01 T02561030  RH  015%=      5-min Rain = 0
KSB1 250316Z 31010KT 26/M03 A2984 RMK A01 T02551030  RH  015%=      5-min Rain = 0
KSB1 250317Z 30008KT 26/M03 A2984 RMK A01 T02551030  RH  015%=      5-min Rain = 0
KSB1 250318Z 32010KT 26/M03 A2984 RMK A01 T02551030  RH  015%=      5-min Rain = 0
KSB1 250319Z 31010KT 25/M03 A2984 RMK A01 T02541032  RH  015%=      5-min Rain = 0
KSB1 250320Z 31012KT 25/M03 A2984 RMK A01 T02541032  RH  015%=      5-min Rain = 0
KSB1 250321Z 31012KT 25/M03 A2984 RMK A01 T02541033  RH  015%=      5-min Rain = 0
KSB1 250322Z 31011KT 25/M03 A2984 RMK A01 T02541034  RH  015%=      5-min Rain = 0
KSB1 250323Z 31012KT 25/M04 A2984 RMK A01 T02541035  RH  015%=      5-min Rain = 0
KSB1 250324Z 31010KT 25/M04 A2984 RMK A01 T02541035  RH  015%=      5-min Rain = 0
KSB1 250325Z 31011G16KT 25/M04 A2984 RMK A01 T02541036  RH  015%=      5-min Rain = 0
KSB1 250326Z 31011KT 25/M04 A2984 RMK A01 T02541036  RH  014%=      5-min Rain = 0
KSB1 250327Z 32012KT 25/M04 A2984 RMK A01 T02541036  RH  014%=      5-min Rain = 0
KSB1 250328Z 31011G16KT 25/M04 A2984 RMK A01 T02531038  RH  014%=      5-min Rain = 0
KSB1 250329Z 31013KT 25/M04 A2984 RMK A01 T02541038  RH  014%=      5-min Rain = 0
KSB1 250330Z 31012G17KT 25/M04 A2984 RMK A01 T02541038  RH  014%=      5-min Rain = 0
KSB1 250331Z 31013KT 25/M04 A2985 RMK A01 T02531039  RH  014%=      5-min Rain = 0
KSB1 250332Z 32012KT 25/M04 A2985 RMK A01 T02531041  RH  014%=      5-min Rain = 0
KSB1 250333Z 32012KT 25/M04 A2985 RMK A01 T02531041  RH  014%=      5-min Rain = 0
KSB1 250334Z 32010KT 25/M04 A2985 RMK A01 T02531041  RH  014%=      5-min Rain = 0
KSB1 250335Z 32010KT 25/M04 A2985 RMK A01 T02521041  RH  014%=      5-min Rain = 0
KSB1 250336Z 32010KT 25/M04 A2985 RMK A01 T02511041  RH  014%=      5-min Rain = 0
KSB1 250337Z 33009KT 25/M04 A2985 RMK A01 T02511042  RH  014%=      5-min Rain = 0
KSB1 250338Z 32010KT 25/M04 A2985 RMK A01 T02501041  RH  014%=      5-min Rain = 0
KSB1 250339Z 32008KT 25/M04 A2985 RMK A01 T02481042  RH  014%=      5-min Rain = 0
KSB1 250340Z 32010KT 25/M04 A2985 RMK A01 T02481044  RH  014%=      5-min Rain = 0
KSB1 250341Z 32007KT 25/M04 A2985 RMK A01 T02481044  RH  014%=      5-min Rain = 0
KSB1 250342Z 31009KT 25/M04 A2985 RMK A01 T02471043  RH  014%=      5-min Rain = 0
KSB1 250343Z 32010KT 25/M05 A2985 RMK A01 T02471046  RH  014%=      5-min Rain = 0
KSB1 250344Z 32011KT 25/M05 A2985 RMK A01 T02471048  RH  014%=      5-min Rain = 0
KSB1 250345Z 31007KT 25/M05 A2985 RMK A01 T02481049  RH  014%=      5-min Rain = 0
KSB1 250346Z 31006KT 25/M05 A2985 RMK A01 T02481048  RH  014%=      5-min Rain = 0
KSB1 250347Z 30007KT 25/M05 A2985 RMK A01 T02471047  RH  014%=      5-min Rain = 0
KSB1 250348Z 31008KT 25/M05 A2985 RMK A01 T02461049  RH  014%=      5-min Rain = 0
KSB1 250349Z 30008KT 25/M05 A2985 RMK A01 T02461050  RH  014%=      5-min Rain = 0
KSB1 250350Z 31008KT 25/M05 A2985 RMK A01 T02461052  RH  013%=      5-min Rain = 0
KSB1 250351Z 31009KT 25/M05 A2985 RMK A01 T02471053  RH  013%=      5-min Rain = 0
KSB1 250352Z 31010KT 25/M05 A2985 RMK A01 T02471054  RH  013%=      5-min Rain = 0
KSB1 250353Z 30009KT 25/M06 A2985 RMK A01 T02471055  RH  013%=      5-min Rain = 0
KSB1 250354Z 31009KT 25/M06 A2985 RMK A01 T02471055  RH  013%=      5-min Rain = 0
KSB1 250355Z 31009KT 25/M06 A2985 RMK A01 T02471055  RH  013%=      5-min Rain = 0
KSB1 250356Z 30011KT 25/M06 A2985 RMK A01 T02461055  RH  013%=      5-min Rain = 0
KSB1 250357Z 31011KT 25/M06 A2985 RMK A01 T02461057  RH  013%=      5-min Rain = 0
KSB1 250358Z 31012KT 25/M06 A2985 RMK A01 T02471058  RH  013%=      5-min Rain = 0
KSB1 250359Z 30010KT 25/M06 A2985 RMK A01 T02481058  RH  013%=      5-min Rain = 0
KSB1 250400Z 32010KT 25/M06 A2985 RMK A01 T02481057  RH  013%=      5-min Rain = 0
KSB1 250401Z 31011KT 25/M06 A2985 RMK A01 T02481058  RH  013%=      5-min Rain = 0
KSB1 250402Z 31010KT 25/M06 A2985 RMK A01 T02471058  RH  013%=      5-min Rain = 0
KSB1 250403Z 31010KT 25/M06 A2984 RMK A01 T02471058  RH  013%=      5-min Rain = 0
KSB1 250404Z 31010KT 25/M06 A2984 RMK A01 T02471059  RH  013%=      5-min Rain = 0
KSB1 250405Z 30011KT 25/M06 A2984 RMK A01 T02471059  RH  013%=      5-min Rain = 0
KSB1 250406Z 31010KT 25/M06 A2984 RMK A01 T02471060  RH  013%=      5-min Rain = 0
KSB1 250407Z 31010KT 25/M06 A2984 RMK A01 T02471060  RH  013%=      5-min Rain = 0
KSB1 250408Z 31012KT 25/M06 A2984 RMK A01 T02471060  RH  013%=      5-min Rain = 0
KSB1 250409Z 31012KT 25/M06 A2985 RMK A01 T02471061  RH  012%=      5-min Rain = 0
KSB1 250410Z 30010KT 25/M06 A2985 RMK A01 T02481061  RH  012%=      5-min Rain = 0
KSB1 250411Z 31010KT 25/M06 A2985 RMK A01 T02481061  RH  012%=      5-min Rain = 0
KSB1 250412Z 30011KT 25/M06 A2985 RMK A01 T02471061  RH  012%=      5-min Rain = 0
KSB1 250413Z 31009KT 25/M06 A2985 RMK A01 T02471062  RH  012%=      5-min Rain = 0
KSB1 250414Z 31010KT 25/M06 A2985 RMK A01 T02471060  RH  013%=      5-min Rain = 0
KSB1 250415Z 32009KT 25/M06 A2985 RMK A01 T02461060  RH  013%=      5-min Rain = 0
KSB1 250416Z 31010KT 25/M06 A2985 RMK A01 T02451060  RH  013%=      5-min Rain = 0
KSB1 250417Z 31010KT 25/M06 A2985 RMK A01 T02451061  RH  013%=      5-min Rain = 0
KSB1 250418Z 31013G18KT 25/M06 A2985 RMK A01 T02451061  RH  013%=      5-min Rain = 0
KSB1 250419Z 31012KT 25/M06 A2985 RMK A01 T02461062  RH  012%=      5-min Rain = 0
KSB1 250420Z 31012KT 25/M06 A2985 RMK A01 T02461062  RH  012%=      5-min Rain = 0
KSB1 250421Z 31012KT 25/M06 A2985 RMK A01 T02471062  RH  012%=      5-min Rain = 0
KSB1 250422Z 31011KT 25/M06 A2985 RMK A01 T02461061  RH  012%=      5-min Rain = 0
KSB1 250423Z 31011KT 25/M06 A2985 RMK A01 T02451061  RH  013%=      5-min Rain = 0
KSB1 250424Z 30010KT 24/M06 A2985 RMK A01 T02441061  RH  013%=      5-min Rain = 0
KSB1 250425Z 31012KT 24/M06 A2985 RMK A01 T02441063  RH  013%=      5-min Rain = 0
KSB1 250426Z 31012G17KT 24/M06 A2985 RMK A01 T02441063  RH  012%=      5-min Rain = 0
KSB1 250427Z 31012KT 24/M06 A2985 RMK A01 T02441063  RH  012%=      5-min Rain = 0
KSB1 250428Z 31013KT 24/M06 A2985 RMK A01 T02441063  RH  012%=      5-min Rain = 0
KSB1 250429Z 31014KT 25/M06 A2985 RMK A01 T02451064  RH  012%=      5-min Rain = 0
KSB1 250430Z 31011KT 25/M07 A2985 RMK A01 T02451065  RH  012%=      5-min Rain = 0
KSB1 250431Z 31013KT 25/M07 A2984 RMK A01 T02451065  RH  012%=      5-min Rain = 0
KSB1 250432Z 31012KT 25/M07 A2984 RMK A01 T02451065  RH  012%=      5-min Rain = 0
KSB1 250433Z 31013KT 25/M07 A2984 RMK A01 T02451066  RH  012%=      5-min Rain = 0
KSB1 250434Z 31013KT 25/M07 A2984 RMK A01 T02451066  RH  012%=      5-min Rain = 0
KSB1 250435Z 31012KT 25/M07 A2984 RMK A01 T02461066  RH  012%=      5-min Rain = 0
KSB1 250436Z 31013KT 25/M07 A2984 RMK A01 T02451066  RH  012%=      5-min Rain = 0
KSB1 250437Z 30016KT 25/M07 A2984 RMK A01 T02451067  RH  012%=      5-min Rain = 0
KSB1 250438Z 30012KT 25/M07 A2984 RMK A01 T02461067  RH  012%=      5-min Rain = 0
KSB1 250439Z 30013KT 25/M07 A2984 RMK A01 T02461068  RH  012%=      5-min Rain = 0
KSB1 250440Z 31013KT 25/M07 A2984 RMK A01 T02461068  RH  012%=      5-min Rain = 0
KSB1 250441Z 30013KT 25/M07 A2984 RMK A01 T02451068  RH  012%=      5-min Rain = 0
KSB1 250442Z 30012G17KT 25/M07 A2984 RMK A01 T02451068  RH  012%=      5-min Rain = 0
KSB1 250443Z 30012KT 25/M07 A2984 RMK A01 T02451069  RH  012%=      5-min Rain = 0
KSB1 250444Z 30011KT 24/M07 A2984 RMK A01 T02441069  RH  012%=      5-min Rain = 0
KSB1 250445Z 30013G21KT 24/M07 A2984 RMK A01 T02441068  RH  012%=      5-min Rain = 0
KSB1 250446Z 31012KT 24/M07 A2984 RMK A01 T02441069  RH  012%=      5-min Rain = 0
KSB1 250447Z 31015KT 24/M07 A2984 RMK A01 T02441068  RH  012%=      5-min Rain = 0
KSB1 250448Z 31013KT 24/M07 A2984 RMK A01 T02441069  RH  012%=      5-min Rain = 0
KSB1 250449Z 31012KT 24/M07 A2984 RMK A01 T02441070  RH  012%=      5-min Rain = 0
KSB1 250450Z 31013KT 24/M07 A2984 RMK A01 T02441070  RH  012%=      5-min Rain = 0
KSB1 250451Z 30012KT 24/M07 A2984 RMK A01 T02441070  RH  012%=      5-min Rain = 0
KSB1 250452Z 31012KT 24/M07 A2984 RMK A01 T02441070  RH  012%=      5-min Rain = 0
KSB1 250453Z 31014KT 24/M07 A2984 RMK A01 T02441070  RH  012%=      5-min Rain = 0
KSB1 250454Z 31011KT 24/M07 A2985 RMK A01 T02441069  RH  012%=      5-min Rain = 0
KSB1 250455Z 31013KT 24/M07 A2985 RMK A01 T02431070  RH  012%=      5-min Rain = 0
KSB1 250456Z 31012KT 24/M07 A2985 RMK A01 T02431070  RH  012%=      5-min Rain = 0
KSB1 250457Z 31016G21KT 24/M07 A2985 RMK A01 T02431071  RH  012%=      5-min Rain = 0
KSB1 250458Z 31013G18KT 24/M07 A2985 RMK A01 T02441071  RH  012%=      5-min Rain = 0
KSB1 250459Z 31011KT 25/M07 A2985 RMK A01 T02451070  RH  012%=      5-min Rain = 0

Page generated in 0.1874 seconds.